Time,TemperatureF,DewpointF,PressureIn,WindDirection,WindDirectionDegrees,WindSpeedMPH,WindSpeedGustMPH,Humidity,HourlyPrecipIn,Conditions,Clouds,dailyrainin,SoftwareType,DateUTC
2013-07-24 00:00:00,73.9,70.5,29.67,ESE,112,0.0,0.2,89,0.00,CLR,,0.00,WeatherDisplay:10.37,2013-07-24 04:00:00,
2013-07-24 00:01:00,73.9,70.5,29.67,ESE,112,0.0,0.0,89,0.00,CLR,,0.00,WeatherDisplay:10.37,2013-07-24 04:01:00,
2013-07-24 00:02:00,73.8,70.3,29.67,ESE,112,0.0,0.5,89,0.00,CLR,,0.00,WeatherDisplay:10.37,2013-07-24 04:02:00,
2013-07-24 00:06:00,73.8,70.3,29.67,ESE,112,0.0,0.0,89,0.00,CLR,,0.00,WeatherDisplay:10.37,2013-07-24 04:06:00,
2013-07-24 00:07:00,73.8,70.3,29.67,ESE,112,0.0,0.0,89,0.00,CLR,,0.00,WeatherDisplay:10.37,2013-07-24 04:07:00,
2013-07-24 00:11:00,73.6,70.1,29.67,ESE,112,0.0,0.0,89,0.00,CLR,,0.00,WeatherDisplay:10.37,2013-07-24 04:11:00,
2013-07-24 00:12:00,73.6,70.1,29.67,ESE,112,0.0,0.0,89,0.00,CLR,,0.00,WeatherDisplay:10.37,2013-07-24 04:12:00,
2013-07-24 00:16:00,73.6,70.1,29.67,ESE,112,0.0,0.0,89,0.00,CLR,,0.00,WeatherDisplay:10.37,2013-07-24 04:16:00,
2013-07-24 00:17:00,73.6,70.1,29.67,ESE,112,0.0,0.0,89,0.00,CLR,,0.00,WeatherDisplay:10.37,2013-07-24 04:17:00,
2013-07-24 00:18:00,73.6,70.1,29.67,ESE,112,0.0,0.0,89,0.00,CLR,,0.00,WeatherDisplay:10.37,2013-07-24 04:18:00,
2013-07-24 00:21:00,73.6,70.1,29.67,SE,135,0.0,0.0,89,0.00,CLR,,0.00,WeatherDisplay:10.37,2013-07-24 04:21:00,
2013-07-24 00:22:00,73.6,70.1,29.67,SE,135,0.0,0.0,89,0.00,CLR,,0.00,WeatherDisplay:10.37,2013-07-24 04:22:00,
2013-07-24 00:23:00,73.6,70.1,29.67,SE,135,0.0,0.0,89,0.00,CLR,,0.00,WeatherDisplay:10.37,2013-07-24 04:23:00,
2013-07-24 00:26:00,73.4,70.0,29.66,SE,135,0.0,0.5,89,0.00,CLR,,0.00,WeatherDisplay:10.37,2013-07-24 04:26:00,
2013-07-24 00:27:00,73.4,70.0,29.66,SE,135,0.0,0.2,89,0.00,CLR,,0.00,WeatherDisplay:10.37,2013-07-24 04:27:00,
2013-07-24 00:28:00,73.4,70.0,29.66,SE,135,0.0,0.2,89,0.00,CLR,,0.00,WeatherDisplay:10.37,2013-07-24 04:28:00,
2013-07-24 00:31:00,73.2,69.8,29.66,SE,135,0.0,0.0,89,0.00,CLR,,0.00,WeatherDisplay:10.37,2013-07-24 04:31:00,
2013-07-24 00:32:00,73.2,69.8,29.66,SE,135,0.0,0.0,89,0.00,CLR,,0.00,WeatherDisplay:10.37,2013-07-24 04:32:00,
2013-07-24 00:33:00,73.2,69.8,29.66,SE,135,0.0,0.0,89,0.00,CLR,,0.00,WeatherDisplay:10.37,2013-07-24 04:33:00,
2013-07-24 00:37:00,73.2,69.8,29.66,SE,135,0.0,0.0,89,0.00,CLR,,0.00,WeatherDisplay:10.37,2013-07-24 04:37:00,
2013-07-24 00:38:00,73.0,69.6,29.66,SE,135,0.0,0.0,89,0.00,CLR,,0.00,WeatherDisplay:10.37,2013-07-24 04:38:00,
2013-07-24 00:42:00,73.0,69.6,29.67,SSE,158,0.0,0.0,89,0.00,CLR,,0.00,WeatherDisplay:10.37,2013-07-24 04:42:00,
2013-07-24 00:43:00,73.0,69.6,29.67,SSE,158,0.0,0.0,89,0.00,CLR,,0.00,WeatherDisplay:10.37,2013-07-24 04:43:00,
2013-07-24 00:44:00,73.0,69.6,29.67,South,180,0.0,0.2,89,0.00,CLR,,0.00,WeatherDisplay:10.37,2013-07-24 04:44:00,
2013-07-24 00:47:00,72.9,69.4,29.67,South,180,0.0,0.0,89,0.00,CLR,,0.00,WeatherDisplay:10.37,2013-07-24 04:47:00,
2013-07-24 00:48:00,72.9,69.4,29.67,South,180,0.0,0.0,89,0.00,CLR,,0.00,WeatherDisplay:10.37,2013-07-24 04:48:00,
2013-07-24 00:49:00,72.9,69.4,29.67,South,180,0.0,0.0,89,0.00,CLR,,0.00,WeatherDisplay:10.37,2013-07-24 04:49:00,
2013-07-24 00:52:00,72.9,69.4,29.67,South,180,0.0,0.0,89,0.00,CLR,,0.00,WeatherDisplay:10.37,2013-07-24 04:52:00,
2013-07-24 00:53:00,72.9,69.4,29.67,South,180,0.0,0.0,89,0.00,CLR,,0.00,WeatherDisplay:10.37,2013-07-24 04:53:00,
2013-07-24 00:54:00,72.9,69.4,29.67,South,180,0.0,0.0,89,0.00,CLR,,0.00,WeatherDisplay:10.37,2013-07-24 04:54:00,
2013-07-24 00:57:00,72.7,69.2,29.67,South,180,0.0,0.0,89,0.00,CLR,,0.00,WeatherDisplay:10.37,2013-07-24 04:57:00,
2013-07-24 00:58:00,72.7,69.2,29.67,South,180,0.0,0.0,89,0.00,CLR,,0.00,WeatherDisplay:10.37,2013-07-24 04:58:00,
2013-07-24 00:59:00,72.7,69.2,29.67,South,180,0.0,0.0,89,0.00,CLR,,0.00,WeatherDisplay:10.37,2013-07-24 04:59:00,
2013-07-24 01:03:00,72.7,69.2,29.67,South,180,0.0,0.5,89,0.00,CLR,,0.00,WeatherDisplay:10.37,2013-07-24 05:03:00,
2013-07-24 01:04:00,72.7,69.2,29.67,SSE,158,0.0,0.5,89,0.00,CLR,,0.00,WeatherDisplay:10.37,2013-07-24 05:04:00,
2013-07-24 01:08:00,72.5,69.1,29.67,SSE,158,0.0,0.2,89,0.00,CLR,,0.00,WeatherDisplay:10.37,2013-07-24 05:08:00,
2013-07-24 01:09:00,72.5,69.1,29.67,SSE,158,0.0,0.5,89,0.00,CLR,,0.00,WeatherDisplay:10.37,2013-07-24 05:09:00,
2013-07-24 01:10:00,72.7,69.2,29.67,SSE,158,1.2,1.2,89,0.00,CLR,,0.00,WeatherDisplay:10.37,2013-07-24 05:10:00,
2013-07-24 01:13:00,72.7,69.2,29.67,SE,135,1.2,1.2,89,0.00,CLR,,0.00,WeatherDisplay:10.37,2013-07-24 05:13:00,
2013-07-24 01:14:00,72.7,69.2,29.67,SE,135,1.2,1.2,89,0.00,CLR,,0.00,WeatherDisplay:10.37,2013-07-24 05:14:00,
2013-07-24 01:15:00,72.7,69.2,29.67,SE,135,1.2,1.2,89,0.00,CLR,,0.00,WeatherDisplay:10.37,2013-07-24 05:15:00,
2013-07-24 01:19:00,72.7,69.2,29.67,SSE,158,0.0,0.0,89,0.00,CLR,,0.00,WeatherDisplay:10.37,2013-07-24 05:19:00,
2013-07-24 01:20:00,72.7,69.2,29.66,SSE,158,0.0,0.0,89,0.00,CLR,,0.00,WeatherDisplay:10.37,2013-07-24 05:20:00,
2013-07-24 01:24:00,72.7,69.2,29.66,SSE,158,0.0,0.0,89,0.00,CLR,,0.00,WeatherDisplay:10.37,2013-07-24 05:24:00,
2013-07-24 01:25:00,72.7,69.2,29.66,West,270,0.0,0.2,89,0.00,CLR,,0.00,WeatherDisplay:10.37,2013-07-24 05:25:00,
2013-07-24 01:29:00,72.7,69.2,29.67,SSE,158,0.0,1.2,89,0.00,CLR,,0.00,WeatherDisplay:10.37,2013-07-24 05:29:00,
2013-07-24 01:30:00,72.7,69.6,29.66,SSE,158,1.2,1.2,90,0.00,CLR,,0.00,WeatherDisplay:10.37,2013-07-24 05:30:00,
2013-07-24 01:34:00,72.7,69.6,29.66,WSW,248,1.2,0.0,90,0.00,CLR,,0.00,WeatherDisplay:10.37,2013-07-24 05:34:00,
2013-07-24 01:35:00,72.6,69.5,29.66,SSW,205,0.0,1.0,90,0.00,CLR,CLR,0.00,WeatherDisplay:10.37,2013-07-24 05:35:00,
2013-07-24 01:39:00,72.5,69.4,29.66,SSE,158,1.2,1.2,90,0.00,CLR,,0.00,WeatherDisplay:10.37,2013-07-24 05:39:00,
2013-07-24 01:40:00,72.5,69.4,29.66,SSE,158,1.2,1.2,90,0.00,CLR,,0.00,WeatherDisplay:10.37,2013-07-24 05:40:00,
2013-07-24 01:41:00,72.5,69.4,29.66,South,180,1.2,1.2,90,0.00,CLR,,0.00,WeatherDisplay:10.37,2013-07-24 05:41:00,
2013-07-24 01:45:00,72.5,69.4,29.66,West,270,2.3,2.3,90,0.00,CLR,,0.00,WeatherDisplay:10.37,2013-07-24 05:45:00,
2013-07-24 01:46:00,72.5,69.4,29.66,SE,135,2.3,2.3,90,0.00,CLR,,0.00,WeatherDisplay:10.37,2013-07-24 05:46:00,
2013-07-24 01:50:00,72.5,69.4,29.67,SSE,158,0.0,0.0,90,0.00,CLR,,0.00,WeatherDisplay:10.37,2013-07-24 05:50:00,
2013-07-24 01:51:00,72.5,69.4,29.67,SSE,158,0.0,0.0,90,0.00,CLR,,0.00,WeatherDisplay:10.37,2013-07-24 05:51:00,
2013-07-24 01:52:00,72.5,69.4,29.67,SSE,158,0.0,0.0,90,0.00,CLR,,0.00,WeatherDisplay:10.37,2013-07-24 05:52:00,
2013-07-24 01:55:00,72.5,69.4,29.67,SSE,158,0.0,0.0,90,0.00,CLR,,0.00,WeatherDisplay:10.37,2013-07-24 05:55:00,
2013-07-24 01:56:00,72.5,69.4,29.67,SSE,158,0.0,0.0,90,0.00,CLR,,0.00,WeatherDisplay:10.37,2013-07-24 05:56:00,
2013-07-24 01:57:00,72.5,69.4,29.67,SSE,158,0.0,0.0,90,0.00,CLR,,0.00,WeatherDisplay:10.37,2013-07-24 05:57:00,
2013-07-24 02:00:00,72.5,69.4,29.67,SSE,158,0.0,0.0,90,0.00,CLR,,0.00,WeatherDisplay:10.37,2013-07-24 06:00:00,
2013-07-24 02:01:00,72.5,69.4,29.67,SSE,158,0.0,0.0,90,0.00,CLR,,0.00,WeatherDisplay:10.37,2013-07-24 06:01:00,
2013-07-24 02:02:00,72.5,69.4,29.67,SSE,158,0.0,0.0,90,0.00,CLR,,0.00,WeatherDisplay:10.37,2013-07-24 06:02:00,
2013-07-24 02:06:00,72.5,69.4,29.66,SSE,158,0.0,0.0,90,0.00,CLR,,0.00,WeatherDisplay:10.37,2013-07-24 06:06:00,
2013-07-24 02:07:00,72.5,69.4,29.66,SSE,158,0.0,0.0,90,0.00,CLR,,0.00,WeatherDisplay:10.37,2013-07-24 06:07:00,
2013-07-24 02:11:00,72.5,69.4,29.66,SSE,158,0.0,0.0,90,0.00,CLR,,0.00,WeatherDisplay:10.37,2013-07-24 06:11:00,
2013-07-24 02:12:00,72.5,69.4,29.66,SSE,158,0.0,0.0,90,0.00,CLR,,0.00,WeatherDisplay:10.37,2013-07-24 06:12:00,
2013-07-24 02:13:00,72.5,69.4,29.66,SSE,158,0.0,0.0,90,0.00,CLR,,0.00,WeatherDisplay:10.37,2013-07-24 06:13:00,
2013-07-24 02:16:00,72.5,69.4,29.66,SSE,158,0.0,0.0,90,0.00,CLR,,0.00,WeatherDisplay:10.37,2013-07-24 06:16:00,
2013-07-24 02:18:00,72.5,69.4,29.66,SSE,158,0.0,0.0,90,0.00,CLR,,0.00,WeatherDisplay:10.37,2013-07-24 06:18:00,
2013-07-24 02:21:00,72.5,69.4,29.67,SSE,158,0.0,0.2,90,0.00,CLR,,0.00,WeatherDisplay:10.37,2013-07-24 06:21:00,
2013-07-24 02:22:00,72.5,69.4,29.67,SSE,158,0.0,0.2,90,0.00,CLR,,0.00,WeatherDisplay:10.37,2013-07-24 06:22:00,
2013-07-24 02:23:00,72.5,69.4,29.67,SSE,158,0.0,0.0,90,0.00,CLR,,0.00,WeatherDisplay:10.37,2013-07-24 06:23:00,
2013-07-24 02:27:00,72.5,69.4,29.67,SSE,158,0.0,0.0,90,0.00,CLR,,0.00,WeatherDisplay:10.37,2013-07-24 06:27:00,
2013-07-24 02:28:00,72.5,69.4,29.67,SSE,158,0.0,0.0,90,0.00,CLR,,0.00,WeatherDisplay:10.37,2013-07-24 06:28:00,
2013-07-24 02:32:00,72.3,69.2,29.67,SSE,158,0.0,0.0,90,0.00,CLR,,0.00,WeatherDisplay:10.37,2013-07-24 06:32:00,
2013-07-24 02:33:00,72.3,69.2,29.67,SSE,158,0.0,0.0,90,0.00,CLR,,0.00,WeatherDisplay:10.37,2013-07-24 06:33:00,
2013-07-24 02:37:00,72.3,69.2,29.67,SSE,158,0.0,0.0,90,0.00,CLR,,0.00,WeatherDisplay:10.37,2013-07-24 06:37:00,
2013-07-24 02:38:00,72.3,69.2,29.67,SSE,158,0.0,0.0,90,0.00,CLR,,0.00,WeatherDisplay:10.37,2013-07-24 06:38:00,
2013-07-24 02:39:00,72.3,69.2,29.67,SSE,158,0.0,0.2,90,0.00,CLR,,0.00,WeatherDisplay:10.37,2013-07-24 06:39:00,
2013-07-24 02:42:00,72.3,69.2,29.67,SSW,202,0.0,0.0,90,0.00,CLR,,0.00,WeatherDisplay:10.37,2013-07-24 06:42:00,
2013-07-24 02:43:00,72.3,69.2,29.67,SSW,202,0.0,0.0,90,0.00,CLR,,0.00,WeatherDisplay:10.37,2013-07-24 06:43:00,
2013-07-24 02:44:00,72.3,69.2,29.67,SW,225,0.0,0.2,90,0.00,CLR,,0.00,WeatherDisplay:10.37,2013-07-24 06:44:00,
2013-07-24 02:48:00,72.3,69.2,29.67,SW,225,0.0,0.0,90,0.00,CLR,,0.00,WeatherDisplay:10.37,2013-07-24 06:48:00,
2013-07-24 02:49:00,72.3,69.2,29.67,SW,225,0.0,0.0,90,0.00,CLR,,0.00,WeatherDisplay:10.37,2013-07-24 06:49:00,
2013-07-24 02:53:00,72.3,69.2,29.67,SW,225,0.0,0.0,90,0.00,CLR,,0.00,WeatherDisplay:10.37,2013-07-24 06:53:00,
2013-07-24 02:54:00,72.3,69.2,29.67,SW,225,0.0,0.0,90,0.00,CLR,,0.00,WeatherDisplay:10.37,2013-07-24 06:54:00,
2013-07-24 02:55:00,72.1,68.7,29.67,SW,225,0.0,0.0,89,0.00,CLR,,0.00,WeatherDisplay:10.37,2013-07-24 06:55:00,
2013-07-24 02:58:00,72.1,68.7,29.67,SW,225,0.0,0.0,89,0.00,CLR,,0.00,WeatherDisplay:10.37,2013-07-24 06:58:00,
2013-07-24 02:59:00,72.1,68.7,29.67,SW,225,0.0,0.0,89,0.00,CLR,,0.00,WeatherDisplay:10.37,2013-07-24 06:59:00,
2013-07-24 03:00:00,72.1,68.7,29.67,SW,225,0.0,0.0,89,0.00,CLR,,0.00,WeatherDisplay:10.37,2013-07-24 07:00:00,
2013-07-24 03:03:00,72.1,68.7,29.67,SW,225,0.0,0.0,89,0.00,CLR,,0.00,WeatherDisplay:10.37,2013-07-24 07:03:00,
2013-07-24 03:04:00,72.1,68.7,29.67,SW,225,0.0,0.0,89,0.00,CLR,,0.00,WeatherDisplay:10.37,2013-07-24 07:04:00,
2013-07-24 03:05:00,72.1,68.7,29.67,SW,225,0.0,0.0,89,0.00,CLR,,0.00,WeatherDisplay:10.37,2013-07-24 07:05:00,
2013-07-24 03:08:00,72.1,68.7,29.67,SW,225,0.0,0.0,89,0.00,CLR,,0.00,WeatherDisplay:10.37,2013-07-24 07:08:00,
2013-07-24 03:09:00,72.1,68.7,29.67,SW,225,0.0,0.0,89,0.00,CLR,,0.00,WeatherDisplay:10.37,2013-07-24 07:09:00,
2013-07-24 03:10:00,72.1,68.7,29.67,SW,225,0.0,0.0,89,0.00,CLR,,0.00,WeatherDisplay:10.37,2013-07-24 07:10:00,
2013-07-24 03:14:00,72.0,68.5,29.67,West,270,0.0,0.5,89,0.00,CLR,,0.00,WeatherDisplay:10.37,2013-07-24 07:14:00,
2013-07-24 03:15:00,72.0,68.5,29.67,NNW,338,0.0,0.0,89,0.00,CLR,,0.00,WeatherDisplay:10.37,2013-07-24 07:15:00,
2013-07-24 03:17:00,72.0,68.5,29.67,NNW,338,0.0,0.0,89,0.00,CLR,,0.00,WeatherDisplay:10.37,2013-07-24 07:17:00,
2013-07-24 03:19:00,72.0,68.5,29.67,NNW,338,0.0,0.0,89,0.00,CLR,,0.00,WeatherDisplay:10.37,2013-07-24 07:19:00,
2013-07-24 03:20:00,72.0,68.5,29.67,NNW,338,0.0,0.0,89,0.00,CLR,,0.00,WeatherDisplay:10.37,2013-07-24 07:20:00,
2013-07-24 03:22:00,72.0,68.5,29.68,NNW,338,0.0,0.2,89,0.00,CLR,,0.00,WeatherDisplay:10.37,2013-07-24 07:22:00,
2013-07-24 03:24:00,71.8,68.4,29.67,NNW,338,0.2,0.2,89,0.00,CLR,,0.00,WeatherDisplay:10.37,2013-07-24 07:24:00,
2013-07-24 03:25:00,71.8,68.4,29.67,NNW,338,0.0,0.2,89,0.00,CLR,,0.00,WeatherDisplay:10.37,2013-07-24 07:25:00,
2013-07-24 03:29:00,71.8,68.4,29.67,NNW,338,0.0,0.0,89,0.00,CLR,,0.00,WeatherDisplay:10.37,2013-07-24 07:29:00,
2013-07-24 03:30:00,71.8,68.4,29.67,NNW,338,0.0,0.0,89,0.00,CLR,,0.00,WeatherDisplay:10.37,2013-07-24 07:30:00,
2013-07-24 03:34:00,71.8,68.4,29.67,WSW,248,0.0,0.0,89,0.00,CLR,,0.00,WeatherDisplay:10.37,2013-07-24 07:34:00,
2013-07-24 03:35:00,71.8,68.4,29.67,WSW,248,0.0,0.2,89,0.00,CLR,,0.00,WeatherDisplay:10.37,2013-07-24 07:35:00,
2013-07-24 03:36:00,71.8,68.4,29.67,WSW,248,0.0,0.0,89,0.00,CLR,,0.00,WeatherDisplay:10.37,2013-07-24 07:36:00,
2013-07-24 03:39:00,71.8,68.4,29.67,WSW,248,0.0,0.0,89,0.00,CLR,,0.00,WeatherDisplay:10.37,2013-07-24 07:39:00,
2013-07-24 03:40:00,71.6,68.2,29.67,WSW,248,0.0,0.0,89,0.00,CLR,,0.00,WeatherDisplay:10.37,2013-07-24 07:40:00,
2013-07-24 03:41:00,71.6,68.2,29.67,WSW,248,0.0,0.0,89,0.00,CLR,,0.00,WeatherDisplay:10.37,2013-07-24 07:41:00,
2013-07-24 03:44:00,71.6,68.2,29.67,WSW,248,0.0,0.0,89,0.00,CLR,,0.00,WeatherDisplay:10.37,2013-07-24 07:44:00,
2013-07-24 03:45:00,71.6,68.2,29.67,WSW,248,0.0,0.0,89,0.00,CLR,,0.00,WeatherDisplay:10.37,2013-07-24 07:45:00,
2013-07-24 03:46:00,71.6,68.2,29.67,WSW,248,0.0,0.0,89,0.00,CLR,,0.00,WeatherDisplay:10.37,2013-07-24 07:46:00,
2013-07-24 03:47:00,71.6,68.2,29.67,WSW,248,0.0,0.0,89,0.00,CLR,,0.00,WeatherDisplay:10.37,2013-07-24 07:47:00,
2013-07-24 03:50:00,71.6,68.2,29.67,WSW,248,0.0,0.0,89,0.00,CLR,CLR,0.00,WeatherDisplay:10.37,2013-07-24 07:50:00,
2013-07-24 03:51:00,71.6,68.2,29.67,WSW,248,0.0,0.0,89,0.00,CLR,,0.00,WeatherDisplay:10.37,2013-07-24 07:51:00,
2013-07-24 03:53:00,71.6,68.2,29.67,WSW,248,0.0,0.0,89,0.00,CLR,,0.00,WeatherDisplay:10.37,2013-07-24 07:53:00,
2013-07-24 03:55:00,71.6,68.2,29.67,WSW,248,0.0,0.0,89,0.00,CLR,,0.00,WeatherDisplay:10.37,2013-07-24 07:55:00,
2013-07-24 03:56:00,71.6,68.2,29.67,WSW,248,0.0,0.0,89,0.00,CLR,,0.00,WeatherDisplay:10.37,2013-07-24 07:56:00,
2013-07-24 03:58:00,71.4,68.0,29.67,WSW,248,0.0,0.0,89,0.00,CLR,,0.00,WeatherDisplay:10.37,2013-07-24 07:58:00,
2013-07-24 04:01:00,71.4,68.0,29.67,WSW,248,0.0,0.0,89,0.00,CLR,,0.00,WeatherDisplay:10.37,2013-07-24 08:01:00,
2013-07-24 04:02:00,71.4,68.0,29.67,WSW,248,0.0,0.0,89,0.00,CLR,,0.00,WeatherDisplay:10.37,2013-07-24 08:02:00,
2013-07-24 04:04:00,71.4,68.0,29.67,WSW,248,0.0,0.0,89,0.00,CLR,,0.00,WeatherDisplay:10.37,2013-07-24 08:04:00,
2013-07-24 04:06:00,71.4,68.0,29.67,WSW,248,0.0,0.0,89,0.00,CLR,,0.00,WeatherDisplay:10.37,2013-07-24 08:06:00,
2013-07-24 04:07:00,71.4,68.0,29.67,WSW,248,0.0,0.0,89,0.00,CLR,,0.00,WeatherDisplay:10.37,2013-07-24 08:07:00,
2013-07-24 04:09:00,71.4,68.0,29.68,WSW,248,0.0,0.0,89,0.00,CLR,,0.00,WeatherDisplay:10.37,2013-07-24 08:09:00,
2013-07-24 04:11:00,71.4,68.0,29.67,WSW,248,0.0,0.0,89,0.00,CLR,,0.00,WeatherDisplay:10.37,2013-07-24 08:11:00,
2013-07-24 04:12:00,71.4,68.0,29.68,WSW,248,0.0,0.0,89,0.00,CLR,,0.00,WeatherDisplay:10.37,2013-07-24 08:12:00,
2013-07-24 04:14:00,71.4,68.0,29.67,WSW,248,0.0,0.0,89,0.00,CLR,,0.00,WeatherDisplay:10.37,2013-07-24 08:14:00,
2013-07-24 04:16:00,71.2,67.8,29.68,WSW,248,0.0,0.0,89,0.00,CLR,,0.00,WeatherDisplay:10.37,2013-07-24 08:16:00,
2013-07-24 04:17:00,71.2,67.8,29.68,WSW,248,0.0,0.0,89,0.00,CLR,,0.00,WeatherDisplay:10.37,2013-07-24 08:17:00,
2013-07-24 04:19:00,71.2,67.8,29.68,WSW,248,0.0,0.0,89,0.00,CLR,,0.00,WeatherDisplay:10.37,2013-07-24 08:19:00,
2013-07-24 04:21:00,71.2,67.8,29.68,WSW,248,0.0,0.0,89,0.00,CLR,,0.00,WeatherDisplay:10.37,2013-07-24 08:21:00,
2013-07-24 04:22:00,71.2,67.8,29.68,WSW,248,0.0,0.0,89,0.00,CLR,,0.00,WeatherDisplay:10.37,2013-07-24 08:22:00,
2013-07-24 04:24:00,71.1,67.7,29.68,WSW,248,0.0,0.0,89,0.00,CLR,,0.00,WeatherDisplay:10.37,2013-07-24 08:24:00,
2013-07-24 04:27:00,71.1,67.7,29.68,WSW,248,0.0,0.0,89,0.00,CLR,,0.00,WeatherDisplay:10.37,2013-07-24 08:27:00,
2013-07-24 04:28:00,71.1,67.7,29.68,WSW,248,0.0,0.0,89,0.00,CLR,,0.00,WeatherDisplay:10.37,2013-07-24 08:28:00,
2013-07-24 04:29:00,71.1,68.0,29.68,WSW,248,0.0,0.0,90,0.00,CLR,,0.00,WeatherDisplay:10.37,2013-07-24 08:29:00,
2013-07-24 04:32:00,71.1,68.0,29.68,WSW,248,0.0,0.0,90,0.00,CLR,,0.00,WeatherDisplay:10.37,2013-07-24 08:32:00,
2013-07-24 04:33:00,71.1,68.0,29.68,WSW,248,0.0,0.0,90,0.00,CLR,,0.00,WeatherDisplay:10.37,2013-07-24 08:33:00,
2013-07-24 04:34:00,71.1,68.0,29.68,WSW,248,0.0,0.0,90,0.00,CLR,,0.00,WeatherDisplay:10.37,2013-07-24 08:34:00,
2013-07-24 04:37:00,71.1,68.0,29.68,WSW,248,0.0,0.0,90,0.00,CLR,,0.00,WeatherDisplay:10.37,2013-07-24 08:37:00,
2013-07-24 04:38:00,70.9,67.8,29.68,WSW,248,0.0,0.0,90,0.00,CLR,,0.00,WeatherDisplay:10.37,2013-07-24 08:38:00,
2013-07-24 04:39:00,70.9,67.8,29.68,WSW,248,0.0,0.0,90,0.00,CLR,,0.00,WeatherDisplay:10.37,2013-07-24 08:39:00,
2013-07-24 04:42:00,70.9,67.8,29.67,WSW,248,0.0,0.0,90,0.00,CLR,,0.00,WeatherDisplay:10.37,2013-07-24 08:42:00,
2013-07-24 04:43:00,70.9,67.8,29.68,WSW,248,0.0,0.0,90,0.00,CLR,,0.00,WeatherDisplay:10.37,2013-07-24 08:43:00,
2013-07-24 04:44:00,70.9,67.8,29.68,WSW,248,0.0,0.0,90,0.00,CLR,,0.00,WeatherDisplay:10.37,2013-07-24 08:44:00,
2013-07-24 04:47:00,70.9,67.8,29.68,WSW,248,0.0,0.0,90,0.00,CLR,,0.00,WeatherDisplay:10.37,2013-07-24 08:47:00,
2013-07-24 04:48:00,70.7,67.6,29.68,WSW,248,0.0,0.0,90,0.00,CLR,,0.00,WeatherDisplay:10.37,2013-07-24 08:48:00,
2013-07-24 04:49:00,70.7,67.6,29.68,WSW,248,0.0,0.0,90,0.00,CLR,,0.00,WeatherDisplay:10.37,2013-07-24 08:49:00,
2013-07-24 04:53:00,70.7,67.6,29.68,WSW,248,0.0,0.0,90,0.00,CLR,,0.00,WeatherDisplay:10.37,2013-07-24 08:53:00,
2013-07-24 04:54:00,70.7,67.6,29.68,WSW,248,0.0,0.0,90,0.00,CLR,,0.00,WeatherDisplay:10.37,2013-07-24 08:54:00,
2013-07-24 04:55:00,70.7,67.6,29.68,WSW,248,0.0,0.0,90,0.00,CLR,,0.00,WeatherDisplay:10.37,2013-07-24 08:55:00,
2013-07-24 04:58:00,70.7,67.6,29.68,WSW,248,0.0,0.0,90,0.00,CLR,,0.00,WeatherDisplay:10.37,2013-07-24 08:58:00,
2013-07-24 04:59:00,70.7,67.6,29.68,WSW,248,0.0,0.0,90,0.00,CLR,,0.00,WeatherDisplay:10.37,2013-07-24 08:59:00,
2013-07-24 05:00:00,70.7,67.6,29.68,WSW,248,0.0,0.0,90,0.00,CLR,,0.00,WeatherDisplay:10.37,2013-07-24 09:00:00,
2013-07-24 05:03:00,70.7,67.6,29.68,WSW,248,0.0,0.0,90,0.00,CLR,,0.00,WeatherDisplay:10.37,2013-07-24 09:03:00,
2013-07-24 05:04:00,70.7,67.6,29.68,WSW,248,0.0,0.0,90,0.00,CLR,,0.00,WeatherDisplay:10.37,2013-07-24 09:04:00,
2013-07-24 05:05:00,70.7,67.6,29.68,WSW,248,0.0,0.0,90,0.00,CLR,,0.00,WeatherDisplay:10.37,2013-07-24 09:05:00,
2013-07-24 05:08:00,70.5,67.4,29.68,WSW,248,0.0,0.0,90,0.00,CLR,,0.00,WeatherDisplay:10.37,2013-07-24 09:08:00,
2013-07-24 05:09:00,70.5,67.4,29.68,WSW,248,0.0,0.0,90,0.00,CLR,,0.00,WeatherDisplay:10.37,2013-07-24 09:09:00,
2013-07-24 05:10:00,70.5,67.4,29.68,WSW,248,0.0,0.0,90,0.00,CLR,,0.00,WeatherDisplay:10.37,2013-07-24 09:10:00,
2013-07-24 05:11:00,70.5,67.4,29.68,WSW,248,0.0,0.0,90,0.00,CLR,,0.00,WeatherDisplay:10.37,2013-07-24 09:11:00,
2013-07-24 05:13:00,70.5,67.4,29.68,WSW,248,0.0,0.0,90,0.00,CLR,,0.00,WeatherDisplay:10.37,2013-07-24 09:13:00,
2013-07-24 05:14:00,70.5,67.4,29.68,WSW,248,0.0,0.0,90,0.00,CLR,,0.00,WeatherDisplay:10.37,2013-07-24 09:14:00,
2013-07-24 05:15:00,70.5,67.4,29.68,WSW,248,0.0,0.0,90,0.00,CLR,,0.00,WeatherDisplay:10.37,2013-07-24 09:15:00,
2013-07-24 05:17:00,70.3,67.3,29.68,WSW,248,0.0,0.0,90,0.00,CLR,,0.00,WeatherDisplay:10.37,2013-07-24 09:17:00,
2013-07-24 05:18:00,70.3,67.3,29.68,WSW,248,0.0,0.0,90,0.00,CLR,,0.00,WeatherDisplay:10.37,2013-07-24 09:18:00,
2013-07-24 05:19:00,70.3,67.3,29.68,WSW,248,0.0,0.0,90,0.00,CLR,,0.00,WeatherDisplay:10.37,2013-07-24 09:19:00,
2013-07-24 05:20:00,70.3,67.3,29.68,WSW,248,0.0,0.0,90,0.00,CLR,,0.00,WeatherDisplay:10.37,2013-07-24 09:20:00,
2013-07-24 05:21:00,70.3,67.3,29.68,WSW,248,0.0,0.0,90,0.00,CLR,,0.00,WeatherDisplay:10.37,2013-07-24 09:21:00,
2013-07-24 05:22:00,70.3,67.3,29.68,WSW,248,0.0,0.0,90,0.00,CLR,,0.00,WeatherDisplay:10.37,2013-07-24 09:22:00,
2013-07-24 05:24:00,70.3,67.3,29.68,WSW,248,0.0,0.0,90,0.00,CLR,,0.00,WeatherDisplay:10.37,2013-07-24 09:24:00,
2013-07-24 05:25:00,70.3,67.3,29.68,WSW,248,0.0,0.0,90,0.00,CLR,,0.00,WeatherDisplay:10.37,2013-07-24 09:25:00,
2013-07-24 05:26:00,70.3,67.3,29.68,WSW,248,0.0,0.0,90,0.00,CLR,,0.00,WeatherDisplay:10.37,2013-07-24 09:26:00,
2013-07-24 05:27:00,70.3,67.3,29.68,WSW,248,0.0,0.0,90,0.00,CLR,,0.00,WeatherDisplay:10.37,2013-07-24 09:27:00,
2013-07-24 05:29:00,70.3,67.3,29.68,WSW,248,0.0,0.0,90,0.00,CLR,,0.00,WeatherDisplay:10.37,2013-07-24 09:29:00,
2013-07-24 05:30:00,70.3,67.3,29.68,WSW,248,0.0,0.0,90,0.00,CLR,,0.00,WeatherDisplay:10.37,2013-07-24 09:30:00,
2013-07-24 05:32:00,70.3,67.3,29.68,WSW,248,0.0,0.0,90,0.00,CLR,,0.00,WeatherDisplay:10.37,2013-07-24 09:32:00,
2013-07-24 05:34:00,70.3,67.3,29.68,WSW,248,0.0,0.0,90,0.00,CLR,,0.00,WeatherDisplay:10.37,2013-07-24 09:34:00,
2013-07-24 05:36:00,70.3,67.3,29.68,WSW,248,0.0,0.0,90,0.00,CLR,,0.00,WeatherDisplay:10.37,2013-07-24 09:36:00,
2013-07-24 05:37:00,70.3,67.3,29.68,WSW,248,0.0,0.0,90,0.00,CLR,,0.00,WeatherDisplay:10.37,2013-07-24 09:37:00,
2013-07-24 05:38:00,70.3,67.3,29.68,WSW,248,0.0,0.0,90,0.00,CLR,,0.00,WeatherDisplay:10.37,2013-07-24 09:38:00,
2013-07-24 05:39:00,70.3,67.3,29.68,WSW,248,0.0,0.0,90,0.00,CLR,,0.00,WeatherDisplay:10.37,2013-07-24 09:39:00,
2013-07-24 05:41:00,70.3,67.3,29.68,WSW,248,0.0,0.0,90,0.00,CLR,,0.00,WeatherDisplay:10.37,2013-07-24 09:41:00,
2013-07-24 05:42:00,70.3,67.3,29.68,WSW,248,0.0,0.0,90,0.00,CLR,,0.00,WeatherDisplay:10.37,2013-07-24 09:42:00,
2013-07-24 05:43:00,70.3,67.3,29.68,WSW,248,0.0,0.0,90,0.00,CLR,,0.00,WeatherDisplay:10.37,2013-07-24 09:43:00,
2013-07-24 05:44:00,70.3,67.3,29.68,WSW,248,0.0,0.0,90,0.00,CLR,,0.00,WeatherDisplay:10.37,2013-07-24 09:44:00,
2013-07-24 05:45:00,70.3,67.3,29.68,WSW,248,0.0,0.0,90,0.00,CLR,,0.00,WeatherDisplay:10.37,2013-07-24 09:45:00,
2013-07-24 05:47:00,70.3,67.3,29.68,WSW,248,0.0,0.0,90,0.00,CLR,,0.00,WeatherDisplay:10.37,2013-07-24 09:47:00,
2013-07-24 05:48:00,70.3,67.3,29.68,WSW,248,0.0,0.0,90,0.00,CLR,,0.00,WeatherDisplay:10.37,2013-07-24 09:48:00,
2013-07-24 05:49:00,70.3,67.3,29.68,WSW,248,0.0,0.0,90,0.00,CLR,,0.00,WeatherDisplay:10.37,2013-07-24 09:49:00,
2013-07-24 05:50:00,70.3,67.3,29.68,WSW,248,0.0,0.0,90,0.00,CLR,,0.00,WeatherDisplay:10.37,2013-07-24 09:50:00,
2013-07-24 05:52:00,70.3,67.6,29.68,WSW,248,0.0,0.0,91,0.00,CLR,,0.00,WeatherDisplay:10.37,2013-07-24 09:52:00,
2013-07-24 05:53:00,70.3,67.3,29.68,WSW,248,0.0,0.0,90,0.00,CLR,,0.00,WeatherDisplay:10.37,2013-07-24 09:53:00,
2013-07-24 05:55:00,70.3,67.6,29.68,WSW,248,0.0,0.0,91,0.00,CLR,,0.00,WeatherDisplay:10.37,2013-07-24 09:55:00,
2013-07-24 05:57:00,70.3,67.6,29.68,WSW,248,0.0,0.0,91,0.00,CLR,,0.00,WeatherDisplay:10.37,2013-07-24 09:57:00,
2013-07-24 05:58:00,70.3,67.6,29.68,WSW,248,0.0,0.0,91,0.00,CLR,,0.00,WeatherDisplay:10.37,2013-07-24 09:58:00,
2013-07-24 06:00:00,70.3,67.6,29.68,WSW,248,0.0,0.0,91,0.00,CLR,,0.00,WeatherDisplay:10.37,2013-07-24 10:00:00,
2013-07-24 06:02:00,70.3,67.6,29.68,WSW,248,0.0,0.0,91,0.00,CLR,,0.00,WeatherDisplay:10.37,2013-07-24 10:02:00,
2013-07-24 06:03:00,70.3,67.6,29.68,WSW,248,0.0,0.0,91,0.00,CLR,,0.00,WeatherDisplay:10.37,2013-07-24 10:03:00,
2013-07-24 06:05:00,70.3,67.6,29.68,WSW,248,0.0,0.0,91,0.00,CLR,CLR,0.00,WeatherDisplay:10.37,2013-07-24 10:05:00,
2013-07-24 06:07:00,70.3,67.6,29.68,WSW,248,0.0,0.0,91,0.00,CLR,,0.00,WeatherDisplay:10.37,2013-07-24 10:07:00,
2013-07-24 06:08:00,70.3,67.6,29.68,WSW,248,0.0,0.0,91,0.00,CLR,,0.00,WeatherDisplay:10.37,2013-07-24 10:08:00,
2013-07-24 06:10:00,70.3,67.6,29.68,WSW,248,0.0,0.0,91,0.00,CLR,CLR,0.00,WeatherDisplay:10.37,2013-07-24 10:10:00,
2013-07-24 06:12:00,70.3,67.6,29.68,WSW,248,0.0,0.0,91,0.00,CLR,,0.00,WeatherDisplay:10.37,2013-07-24 10:12:00,
2013-07-24 06:13:00,70.3,67.6,29.68,WSW,248,0.0,0.0,91,0.00,CLR,,0.00,WeatherDisplay:10.37,2013-07-24 10:13:00,
2013-07-24 06:15:00,70.3,67.6,29.68,WSW,248,0.0,0.0,91,0.00,CLR,,0.00,WeatherDisplay:10.37,2013-07-24 10:15:00,
2013-07-24 06:17:00,70.3,67.6,29.68,WSW,248,0.0,0.0,91,0.00,CLR,,0.00,WeatherDisplay:10.37,2013-07-24 10:17:00,
2013-07-24 06:18:00,70.3,67.6,29.68,WSW,248,0.0,0.0,91,0.00,CLR,,0.00,WeatherDisplay:10.37,2013-07-24 10:18:00,
2013-07-24 06:19:00,70.3,67.6,29.68,WSW,248,0.0,0.0,91,0.00,CLR,,0.00,WeatherDisplay:10.37,2013-07-24 10:19:00,
2013-07-24 06:20:00,70.3,67.6,29.68,WSW,248,0.0,0.0,91,0.00,CLR,,0.00,WeatherDisplay:10.37,2013-07-24 10:20:00,
2013-07-24 06:23:00,70.3,67.6,29.68,WSW,248,0.0,0.0,91,0.00,CLR,,0.00,WeatherDisplay:10.37,2013-07-24 10:23:00,
2013-07-24 06:24:00,70.3,67.6,29.69,WSW,248,0.0,0.0,91,0.00,CLR,,0.00,WeatherDisplay:10.37,2013-07-24 10:24:00,
2013-07-24 06:26:00,70.3,67.6,29.69,WSW,248,0.0,0.5,91,0.00,CLR,,0.00,WeatherDisplay:10.37,2013-07-24 10:26:00,
2013-07-24 06:27:00,70.3,67.6,29.69,WSW,248,0.0,0.0,91,0.00,CLR,,0.00,WeatherDisplay:10.37,2013-07-24 10:27:00,
2013-07-24 06:28:00,70.5,67.8,29.69,WSW,248,0.0,0.0,91,0.00,CLR,,0.00,WeatherDisplay:10.37,2013-07-24 10:28:00,
2013-07-24 06:29:00,70.5,67.8,29.69,WSW,248,0.0,0.0,91,0.00,CLR,,0.00,WeatherDisplay:10.37,2013-07-24 10:29:00,
2013-07-24 06:31:00,70.5,67.8,29.69,WSW,248,0.0,0.0,91,0.00,CLR,,0.00,WeatherDisplay:10.37,2013-07-24 10:31:00,
2013-07-24 06:32:00,70.3,67.6,29.69,WSW,248,0.0,0.0,91,0.00,CLR,,0.00,WeatherDisplay:10.37,2013-07-24 10:32:00,
2013-07-24 06:33:00,70.3,67.6,29.69,WSW,248,0.0,0.0,91,0.00,CLR,,0.00,WeatherDisplay:10.37,2013-07-24 10:33:00,
2013-07-24 06:34:00,70.5,67.8,29.69,WSW,248,0.0,0.0,91,0.00,CLR,,0.00,WeatherDisplay:10.37,2013-07-24 10:34:00,
2013-07-24 06:36:00,70.5,67.8,29.69,WSW,248,0.0,0.0,91,0.00,CLR,,0.00,WeatherDisplay:10.37,2013-07-24 10:36:00,
2013-07-24 06:38:00,70.3,67.6,29.69,WSW,248,0.0,0.0,91,0.00,CLR,,0.00,WeatherDisplay:10.37,2013-07-24 10:38:00,
2013-07-24 06:39:00,70.5,67.8,29.69,WSW,248,0.0,0.0,91,0.00,CLR,,0.00,WeatherDisplay:10.37,2013-07-24 10:39:00,
2013-07-24 06:40:00,70.5,67.8,29.69,WSW,248,0.0,0.0,91,0.00,CLR,,0.00,WeatherDisplay:10.37,2013-07-24 10:40:00,
2013-07-24 06:41:00,70.3,67.6,29.69,WSW,248,0.0,0.0,91,0.00,CLR,,0.00,WeatherDisplay:10.37,2013-07-24 10:41:00,
2013-07-24 06:43:00,70.5,67.8,29.69,WSW,248,0.0,0.0,91,0.00,CLR,,0.00,WeatherDisplay:10.37,2013-07-24 10:43:00,
2013-07-24 06:44:00,70.5,67.8,29.69,WSW,248,0.0,0.0,91,0.00,CLR,,0.00,WeatherDisplay:10.37,2013-07-24 10:44:00,
2013-07-24 06:46:00,70.5,67.8,29.69,WSW,248,0.0,0.0,91,0.00,CLR,,0.00,WeatherDisplay:10.37,2013-07-24 10:46:00,
2013-07-24 06:48:00,70.5,67.8,29.69,WSW,248,0.0,0.0,91,0.00,CLR,,0.00,WeatherDisplay:10.37,2013-07-24 10:48:00,
2013-07-24 06:49:00,70.5,67.8,29.69,WSW,248,0.0,0.0,91,0.00,CLR,,0.00,WeatherDisplay:10.37,2013-07-24 10:49:00,
2013-07-24 06:51:00,70.5,67.8,29.69,WSW,248,0.0,0.0,91,0.00,CLR,,0.00,WeatherDisplay:10.37,2013-07-24 10:51:00,
2013-07-24 06:53:00,70.5,67.8,29.69,WSW,248,0.0,0.0,91,0.00,CLR,,0.00,WeatherDisplay:10.37,2013-07-24 10:53:00,
2013-07-24 06:54:00,70.5,67.8,29.69,WSW,248,0.0,0.0,91,0.00,CLR,,0.00,WeatherDisplay:10.37,2013-07-24 10:54:00,
2013-07-24 06:56:00,70.7,67.9,29.69,WSW,248,0.0,0.0,91,0.00,CLR,,0.00,WeatherDisplay:10.37,2013-07-24 10:56:00,
2013-07-24 06:57:00,70.7,67.9,29.69,WSW,248,0.0,0.0,91,0.00,CLR,,0.00,WeatherDisplay:10.37,2013-07-24 10:57:00,
2013-07-24 06:58:00,70.7,67.9,29.69,WSW,248,0.0,0.0,91,0.00,CLR,,0.00,WeatherDisplay:10.37,2013-07-24 10:58:00,
2013-07-24 06:59:00,70.7,67.9,29.69,WSW,248,0.0,0.0,91,0.00,CLR,,0.00,WeatherDisplay:10.37,2013-07-24 10:59:00,
2013-07-24 07:00:00,70.7,67.9,29.69,WSW,248,0.0,0.0,91,0.00,CLR,,0.00,WeatherDisplay:10.37,2013-07-24 11:00:00,
2013-07-24 07:01:00,70.7,67.9,29.69,WSW,248,0.2,0.2,91,0.00,CLR,,0.00,WeatherDisplay:10.37,2013-07-24 11:01:00,
2013-07-24 07:02:00,70.7,67.9,29.69,WSW,248,0.0,0.2,91,0.00,CLR,,0.00,WeatherDisplay:10.37,2013-07-24 11:02:00,
2013-07-24 07:04:00,70.7,67.9,29.69,WSW,248,0.0,0.0,91,0.00,CLR,,0.00,WeatherDisplay:10.37,2013-07-24 11:04:00,
2013-07-24 07:05:00,70.7,67.9,29.69,WSW,248,0.0,0.0,91,0.00,CLR,,0.00,WeatherDisplay:10.37,2013-07-24 11:05:00,
2013-07-24 07:07:00,70.7,67.9,29.69,WSW,248,0.0,0.0,91,0.00,CLR,,0.00,WeatherDisplay:10.37,2013-07-24 11:07:00,
2013-07-24 07:09:00,70.7,67.9,29.70,WSW,248,0.0,0.0,91,0.00,CLR,,0.00,WeatherDisplay:10.37,2013-07-24 11:09:00,
2013-07-24 07:10:00,70.7,67.9,29.70,WSW,248,0.0,0.0,91,0.00,CLR,,0.00,WeatherDisplay:10.37,2013-07-24 11:10:00,
2013-07-24 07:12:00,70.9,68.1,29.70,WSW,248,0.0,0.0,91,0.00,CLR,,0.00,WeatherDisplay:10.37,2013-07-24 11:12:00,
2013-07-24 07:14:00,70.7,67.9,29.70,WSW,248,0.0,0.0,91,0.00,CLR,,0.00,WeatherDisplay:10.37,2013-07-24 11:14:00,
2013-07-24 07:15:00,70.9,68.1,29.70,WSW,248,0.0,0.0,91,0.00,CLR,,0.00,WeatherDisplay:10.37,2013-07-24 11:15:00,
2013-07-24 07:17:00,70.9,68.1,29.70,SSW,202,0.0,0.2,91,0.00,CLR,,0.00,WeatherDisplay:10.37,2013-07-24 11:17:00,
2013-07-24 07:19:00,70.9,68.1,29.70,SSW,202,0.0,0.0,91,0.00,CLR,,0.00,WeatherDisplay:10.37,2013-07-24 11:19:00,
2013-07-24 07:20:00,70.9,68.1,29.70,SSW,202,0.0,0.5,91,0.00,CLR,,0.00,WeatherDisplay:10.37,2013-07-24 11:20:00,
2013-07-24 07:22:00,70.9,68.1,29.70,SSW,202,0.0,0.0,91,0.00,CLR,,0.00,WeatherDisplay:10.37,2013-07-24 11:22:00,
2013-07-24 07:23:00,70.9,68.1,29.70,SSW,202,0.0,0.0,91,0.00,CLR,,0.00,WeatherDisplay:10.37,2013-07-24 11:23:00,
2013-07-24 07:24:00,71.1,68.3,29.70,SSW,202,0.0,0.0,91,0.00,CLR,,0.00,WeatherDisplay:10.37,2013-07-24 11:24:00,
2013-07-24 07:25:00,71.1,68.3,29.71,SSW,202,0.0,0.0,91,0.00,CLR,,0.00,WeatherDisplay:10.37,2013-07-24 11:25:00,
2013-07-24 07:26:00,71.1,68.3,29.71,SSW,202,0.0,0.0,91,0.00,CLR,,0.00,WeatherDisplay:10.37,2013-07-24 11:26:00,
2013-07-24 07:28:00,71.1,68.3,29.71,SSW,202,0.0,0.0,91,0.00,CLR,,0.00,WeatherDisplay:10.37,2013-07-24 11:28:00,
2013-07-24 07:29:00,71.1,68.3,29.71,SSW,202,0.0,0.0,91,0.00,CLR,,0.00,WeatherDisplay:10.37,2013-07-24 11:29:00,
2013-07-24 07:31:00,71.1,68.3,29.70,SSW,202,0.0,0.0,91,0.00,CLR,,0.00,WeatherDisplay:10.37,2013-07-24 11:31:00,
2013-07-24 07:33:00,71.1,68.3,29.71,SSW,202,0.0,0.0,91,0.00,CLR,,0.00,WeatherDisplay:10.37,2013-07-24 11:33:00,
2013-07-24 07:34:00,71.1,68.3,29.71,SSW,202,0.0,0.0,91,0.00,CLR,,0.00,WeatherDisplay:10.37,2013-07-24 11:34:00,
2013-07-24 07:36:00,71.1,68.3,29.71,SSW,202,0.0,0.0,91,0.00,CLR,,0.00,WeatherDisplay:10.37,2013-07-24 11:36:00,
2013-07-24 07:37:00,71.1,68.3,29.71,SSW,202,0.0,0.0,91,0.00,CLR,,0.00,WeatherDisplay:10.37,2013-07-24 11:37:00,
2013-07-24 07:38:00,71.1,68.3,29.71,South,180,0.0,0.0,91,0.00,CLR,,0.00,WeatherDisplay:10.37,2013-07-24 11:38:00,
2013-07-24 07:39:00,71.1,68.3,29.71,South,180,0.0,0.0,91,0.00,CLR,,0.00,WeatherDisplay:10.37,2013-07-24 11:39:00,
2013-07-24 07:42:00,71.2,68.5,29.71,South,180,0.0,0.0,91,0.00,CLR,,0.00,WeatherDisplay:10.37,2013-07-24 11:42:00,
2013-07-24 07:43:00,71.2,68.5,29.71,South,180,0.0,0.0,91,0.00,CLR,,0.00,WeatherDisplay:10.37,2013-07-24 11:43:00,
2013-07-24 07:44:00,71.2,68.5,29.71,South,180,0.0,0.0,91,0.00,CLR,,0.00,WeatherDisplay:10.37,2013-07-24 11:44:00,
2013-07-24 07:47:00,71.2,68.5,29.70,South,180,0.0,0.0,91,0.00,CLR,,0.00,WeatherDisplay:10.37,2013-07-24 11:47:00,
2013-07-24 07:48:00,71.2,68.5,29.71,South,180,0.0,0.0,91,0.00,CLR,,0.00,WeatherDisplay:10.37,2013-07-24 11:48:00,
2013-07-24 07:49:00,71.2,68.5,29.70,South,180,0.0,0.0,91,0.00,CLR,,0.00,WeatherDisplay:10.37,2013-07-24 11:49:00,
2013-07-24 07:50:00,71.2,68.5,29.71,South,180,0.0,0.0,91,0.00,CLR,,0.00,WeatherDisplay:10.37,2013-07-24 11:50:00,
2013-07-24 07:52:00,71.2,68.5,29.71,SSW,202,0.0,0.0,91,0.00,CLR,,0.00,WeatherDisplay:10.37,2013-07-24 11:52:00,
2013-07-24 07:53:00,71.2,68.5,29.70,SSW,202,0.0,0.0,91,0.00,CLR,,0.00,WeatherDisplay:10.37,2013-07-24 11:53:00,
2013-07-24 07:54:00,71.2,68.5,29.70,SSW,202,0.0,0.0,91,0.00,CLR,,0.00,WeatherDisplay:10.37,2013-07-24 11:54:00,
2013-07-24 07:55:00,71.2,68.5,29.70,SSW,202,0.0,0.0,91,0.00,CLR,,0.00,WeatherDisplay:10.37,2013-07-24 11:55:00,
2013-07-24 07:57:00,71.2,68.5,29.71,South,180,0.0,0.0,91,0.00,CLR,,0.00,WeatherDisplay:10.37,2013-07-24 11:57:00,
2013-07-24 07:58:00,71.2,68.5,29.71,South,180,0.0,0.0,91,0.00,CLR,,0.00,WeatherDisplay:10.37,2013-07-24 11:58:00,
2013-07-24 07:59:00,71.4,68.7,29.71,South,180,0.0,0.5,91,0.00,CLR,,0.00,WeatherDisplay:10.37,2013-07-24 11:59:00,
2013-07-24 08:00:00,71.3,68.6,29.71,South,189,0.0,0.0,91,0.00,CLR,CLR,0.00,WeatherDisplay:10.37,2013-07-24 12:00:00,
2013-07-24 08:02:00,71.4,68.7,29.71,South,180,0.0,0.0,91,0.00,CLR,,0.00,WeatherDisplay:10.37,2013-07-24 12:02:00,
2013-07-24 08:03:00,71.4,68.7,29.71,South,180,0.0,0.0,91,0.00,CLR,,0.00,WeatherDisplay:10.37,2013-07-24 12:03:00,
2013-07-24 08:04:00,71.4,68.7,29.71,South,180,0.0,0.2,91,0.00,CLR,,0.00,WeatherDisplay:10.37,2013-07-24 12:04:00,
2013-07-24 08:05:00,71.4,68.7,29.71,South,180,0.0,0.2,91,0.00,CLR,,0.00,WeatherDisplay:10.37,2013-07-24 12:05:00,
2013-07-24 08:07:00,71.4,68.7,29.72,South,180,0.0,0.5,91,0.00,CLR,,0.00,WeatherDisplay:10.37,2013-07-24 12:07:00,
2013-07-24 08:08:00,71.4,68.7,29.72,South,180,0.0,0.5,91,0.00,CLR,,0.00,WeatherDisplay:10.37,2013-07-24 12:08:00,
2013-07-24 08:09:00,71.4,68.7,29.71,South,180,0.0,0.2,91,0.00,CLR,,0.00,WeatherDisplay:10.37,2013-07-24 12:09:00,
2013-07-24 08:10:00,71.6,68.8,29.72,SSE,158,0.0,1.2,91,0.00,CLR,,0.00,WeatherDisplay:10.37,2013-07-24 12:10:00,
2013-07-24 08:12:00,71.6,68.8,29.72,NW,315,1.2,1.2,91,0.00,CLR,,0.00,WeatherDisplay:10.37,2013-07-24 12:12:00,
2013-07-24 08:13:00,71.6,68.8,29.72,NW,315,1.2,1.2,91,0.00,CLR,,0.00,WeatherDisplay:10.37,2013-07-24 12:13:00,
2013-07-24 08:14:00,71.6,68.8,29.72,NW,315,1.2,1.2,91,0.00,CLR,,0.00,WeatherDisplay:10.37,2013-07-24 12:14:00,
2013-07-24 08:15:00,71.8,69.0,29.72,NE,45,1.2,1.2,91,0.00,CLR,,0.00,WeatherDisplay:10.37,2013-07-24 12:15:00,
2013-07-24 08:18:00,71.8,68.7,29.72,NNE,22,0.0,0.0,90,0.00,CLR,,0.00,WeatherDisplay:10.37,2013-07-24 12:18:00,
2013-07-24 08:20:00,71.8,68.7,29.72,NNE,22,0.0,0.0,90,0.00,CLR,,0.00,WeatherDisplay:10.37,2013-07-24 12:20:00,
2013-07-24 08:23:00,72.0,68.9,29.72,East,90,0.0,0.5,90,0.00,CLR,,0.00,WeatherDisplay:10.37,2013-07-24 12:23:00,
2013-07-24 08:25:00,72.1,69.0,29.72,East,90,0.0,0.0,90,0.00,CLR,,0.00,WeatherDisplay:10.37,2013-07-24 12:25:00,
2013-07-24 08:26:00,72.1,69.0,29.73,NW,315,0.0,0.5,90,0.00,CLR,,0.00,WeatherDisplay:10.37,2013-07-24 12:26:00,
2013-07-24 08:28:00,72.1,69.0,29.73,NW,315,0.0,0.7,90,0.00,CLR,,0.00,WeatherDisplay:10.37,2013-07-24 12:28:00,
2013-07-24 08:30:00,72.3,69.5,29.73,ENE,68,1.2,0.0,91,0.00,CLR,,0.00,WeatherDisplay:10.37,2013-07-24 12:30:00,
2013-07-24 08:31:00,72.3,69.5,29.73,ENE,68,1.2,0.0,91,0.00,CLR,,0.00,WeatherDisplay:10.37,2013-07-24 12:31:00,
2013-07-24 08:34:00,72.5,69.4,29.73,ENE,68,0.0,0.0,90,0.00,CLR,,0.00,WeatherDisplay:10.37,2013-07-24 12:34:00,
2013-07-24 08:36:00,72.5,69.4,29.73,ENE,68,0.0,0.0,90,0.00,CLR,,0.00,WeatherDisplay:10.37,2013-07-24 12:36:00,
2013-07-24 08:39:00,72.9,69.8,29.73,NW,315,0.0,0.5,90,0.00,CLR,,0.00,WeatherDisplay:10.37,2013-07-24 12:39:00,
2013-07-24 08:41:00,73.0,69.9,29.74,NE,45,1.2,0.0,90,0.00,CLR,,0.00,WeatherDisplay:10.37,2013-07-24 12:41:00,
2013-07-24 08:44:00,73.2,69.8,29.74,SW,225,2.3,2.3,89,0.00,CLR,,0.00,WeatherDisplay:10.37,2013-07-24 12:44:00,
2013-07-24 08:46:00,73.6,70.1,29.75,ESE,112,2.3,2.3,89,0.00,CLR,,0.00,WeatherDisplay:10.37,2013-07-24 12:46:00,
2013-07-24 08:47:00,73.6,70.1,29.75,ESE,112,2.3,2.3,89,0.00,CLR,,0.00,WeatherDisplay:10.37,2013-07-24 12:47:00,
2013-07-24 08:49:00,73.9,70.5,29.75,ESE,112,1.2,1.2,89,0.00,CLR,,0.00,WeatherDisplay:10.37,2013-07-24 12:49:00,
2013-07-24 08:52:00,74.1,70.7,29.75,SE,135,1.2,0.0,89,0.00,CLR,,0.00,WeatherDisplay:10.37,2013-07-24 12:52:00,
2013-07-24 08:54:00,74.3,70.8,29.74,NNW,338,1.2,1.2,89,0.00,CLR,,0.00,WeatherDisplay:10.37,2013-07-24 12:54:00,
2013-07-24 08:57:00,74.5,71.0,29.74,NW,315,1.2,1.2,89,0.00,CLR,,0.00,WeatherDisplay:10.37,2013-07-24 12:57:00,
2013-07-24 08:58:00,74.7,71.2,29.75,NNW,338,1.2,1.2,89,0.00,CLR,,0.00,WeatherDisplay:10.37,2013-07-24 12:58:00,
2013-07-24 08:59:00,74.7,70.5,29.75,WSW,248,1.2,1.8,87,0.00,CLR,,0.00,WeatherDisplay:10.37,2013-07-24 12:59:00,
2013-07-24 09:00:00,74.7,70.5,29.75,WSW,248,1.2,1.8,87,0.00,CLR,,0.00,WeatherDisplay:10.37,2013-07-24 13:00:00,
2013-07-24 09:02:00,75.0,70.9,29.75,NW,315,2.3,2.3,87,0.00,CLR,,0.00,WeatherDisplay:10.37,2013-07-24 13:02:00,
2013-07-24 09:03:00,75.0,70.9,29.75,West,270,2.3,2.3,87,0.00,CLR,,0.00,WeatherDisplay:10.37,2013-07-24 13:03:00,
2013-07-24 09:04:00,75.0,70.2,29.75,WNW,292,1.2,1.2,85,0.00,CLR,,0.00,WeatherDisplay:10.37,2013-07-24 13:04:00,
2013-07-24 09:05:00,75.0,70.2,29.75,WNW,292,1.2,1.2,85,0.00,CLR,,0.00,WeatherDisplay:10.37,2013-07-24 13:05:00,
2013-07-24 09:07:00,75.2,70.4,29.75,NNW,338,0.0,0.2,85,0.00,CLR,,0.00,WeatherDisplay:10.37,2013-07-24 13:07:00,
2013-07-24 09:08:00,75.2,70.4,29.75,West,270,0.0,0.5,85,0.00,CLR,,0.00,WeatherDisplay:10.37,2013-07-24 13:08:00,
2013-07-24 09:09:00,75.4,70.2,29.75,South,180,0.0,0.5,84,0.00,CLR,,0.00,WeatherDisplay:10.37,2013-07-24 13:09:00,
2013-07-24 09:10:00,75.4,70.2,29.75,South,180,0.0,0.5,84,0.00,CLR,,0.00,WeatherDisplay:10.37,2013-07-24 13:10:00,
2013-07-24 09:12:00,75.4,70.2,29.75,WNW,292,2.3,2.3,84,0.00,CLR,,0.00,WeatherDisplay:10.37,2013-07-24 13:12:00,
2013-07-24 09:13:00,75.4,70.2,29.75,South,180,2.3,2.3,84,0.00,CLR,,0.00,WeatherDisplay:10.37,2013-07-24 13:13:00,
2013-07-24 09:15:00,75.4,70.2,29.75,NNW,338,2.3,2.3,84,0.00,CLR,,0.00,WeatherDisplay:10.37,2013-07-24 13:15:00,
2013-07-24 09:16:00,75.4,69.9,29.75,NNW,338,1.2,1.8,83,0.00,CLR,,0.00,WeatherDisplay:10.37,2013-07-24 13:16:00,
2013-07-24 09:17:00,75.4,69.9,29.75,NNW,338,2.3,2.3,83,0.00,CLR,,0.00,WeatherDisplay:10.37,2013-07-24 13:17:00,
2013-07-24 09:18:00,75.6,70.0,29.75,NNW,338,2.3,0.0,83,0.00,CLR,,0.00,WeatherDisplay:10.37,2013-07-24 13:18:00,
2013-07-24 09:19:00,75.4,69.9,29.75,NW,315,2.3,2.3,83,0.00,CLR,,0.00,WeatherDisplay:10.37,2013-07-24 13:19:00,
2013-07-24 09:20:00,75.4,69.9,29.75,NW,311,0.0,2.0,83,0.00,CLR,CLR,0.00,WeatherDisplay:10.37,2013-07-24 13:20:00,
2013-07-24 09:21:00,75.4,69.9,29.75,NNW,338,0.0,0.2,83,0.00,CLR,,0.00,WeatherDisplay:10.37,2013-07-24 13:21:00,
2013-07-24 09:23:00,75.4,69.9,29.75,WSW,248,0.0,0.7,83,0.00,CLR,,0.00,WeatherDisplay:10.37,2013-07-24 13:23:00,
2013-07-24 09:24:00,75.4,69.9,29.75,South,180,1.2,1.2,83,0.00,CLR,,0.00,WeatherDisplay:10.37,2013-07-24 13:24:00,
2013-07-24 09:25:00,75.4,69.5,29.75,ENE,68,1.2,1.2,82,0.00,CLR,,0.00,WeatherDisplay:10.37,2013-07-24 13:25:00,
2013-07-24 09:26:00,75.4,69.5,29.75,SSW,202,1.2,1.2,82,0.00,CLR,,0.00,WeatherDisplay:10.37,2013-07-24 13:26:00,
2013-07-24 09:28:00,75.6,69.7,29.75,WNW,292,1.2,1.2,82,0.00,CLR,,0.00,WeatherDisplay:10.37,2013-07-24 13:28:00,
2013-07-24 09:29:00,75.6,69.7,29.75,WNW,292,1.2,1.2,82,0.00,CLR,,0.00,WeatherDisplay:10.37,2013-07-24 13:29:00,
2013-07-24 09:30:00,75.6,69.7,29.75,WNW,292,1.2,1.2,82,0.00,CLR,,0.00,WeatherDisplay:10.37,2013-07-24 13:30:00,
2013-07-24 09:31:00,75.6,69.7,29.75,WNW,292,1.2,2.0,82,0.00,CLR,,0.00,WeatherDisplay:10.37,2013-07-24 13:31:00,
2013-07-24 09:33:00,75.7,69.5,29.75,WNW,292,2.3,0.0,81,0.00,CLR,,0.00,WeatherDisplay:10.37,2013-07-24 13:33:00,
2013-07-24 09:34:00,75.7,69.5,29.75,WNW,292,0.0,0.0,81,0.00,CLR,,0.00,WeatherDisplay:10.37,2013-07-24 13:34:00,
2013-07-24 09:35:00,75.7,69.9,29.75,WNW,292,0.0,0.2,82,0.00,CLR,,0.00,WeatherDisplay:10.37,2013-07-24 13:35:00,
2013-07-24 09:37:00,75.9,70.0,29.75,WSW,248,1.2,1.2,82,0.00,CLR,,0.00,WeatherDisplay:10.37,2013-07-24 13:37:00,
2013-07-24 09:38:00,76.1,69.8,29.76,WSW,248,1.2,1.6,81,0.00,CLR,,0.00,WeatherDisplay:10.37,2013-07-24 13:38:00,
2013-07-24 09:39:00,76.1,69.8,29.76,NW,315,1.2,1.2,81,0.00,CLR,,0.00,WeatherDisplay:10.37,2013-07-24 13:39:00,
2013-07-24 09:40:00,76.3,70.0,29.76,NW,315,1.2,1.2,81,0.00,CLR,,0.00,WeatherDisplay:10.37,2013-07-24 13:40:00,
2013-07-24 09:42:00,76.5,69.8,29.76,ENE,68,2.3,2.4,80,0.00,CLR,,0.00,WeatherDisplay:10.37,2013-07-24 13:42:00,
2013-07-24 09:43:00,76.5,69.8,29.76,WNW,292,2.3,2.3,80,0.00,CLR,,0.00,WeatherDisplay:10.37,2013-07-24 13:43:00,
2013-07-24 09:44:00,76.5,69.8,29.76,NW,315,2.3,2.3,80,0.00,CLR,,0.00,WeatherDisplay:10.37,2013-07-24 13:44:00,
2013-07-24 09:45:00,76.5,69.8,29.76,WNW,292,1.2,1.2,80,0.00,CLR,,0.00,WeatherDisplay:10.37,2013-07-24 13:45:00,
2013-07-24 09:47:00,76.5,69.5,29.76,NNE,22,1.2,1.2,79,0.00,CLR,,0.00,WeatherDisplay:10.37,2013-07-24 13:47:00,
2013-07-24 09:48:00,76.6,70.0,29.76,NNE,22,0.0,0.0,80,0.00,CLR,,0.00,WeatherDisplay:10.37,2013-07-24 13:48:00,
2013-07-24 09:49:00,76.6,70.0,29.76,WNW,292,1.8,1.8,80,0.00,CLR,,0.00,WeatherDisplay:10.37,2013-07-24 13:49:00,
2013-07-24 09:50:00,76.6,70.0,29.76,WNW,292,2.3,2.3,80,0.00,CLR,,0.00,WeatherDisplay:10.37,2013-07-24 13:50:00,
2013-07-24 09:51:00,76.6,70.0,29.76,West,270,2.3,2.3,80,0.00,CLR,,0.00,WeatherDisplay:10.37,2013-07-24 13:51:00,
2013-07-24 09:52:00,76.6,69.6,29.76,South,180,2.3,2.3,79,0.00,CLR,,0.00,WeatherDisplay:10.37,2013-07-24 13:52:00,
2013-07-24 09:53:00,76.5,68.3,29.76,NNW,338,1.2,2.0,76,0.00,CLR,,0.00,WeatherDisplay:10.37,2013-07-24 13:53:00,
2013-07-24 09:55:00,76.5,68.7,29.76,East,90,2.3,2.3,77,0.00,CLR,,0.00,WeatherDisplay:10.37,2013-07-24 13:55:00,
2013-07-24 09:56:00,76.5,68.3,29.76,NW,315,2.3,2.3,76,0.00,CLR,,0.00,WeatherDisplay:10.37,2013-07-24 13:56:00,
2013-07-24 09:57:00,76.5,68.3,29.76,NNW,338,1.2,1.2,76,0.00,CLR,,0.00,WeatherDisplay:10.37,2013-07-24 13:57:00,
2013-07-24 09:58:00,76.5,68.7,29.76,NE,45,1.2,1.4,77,0.00,CLR,,0.00,WeatherDisplay:10.37,2013-07-24 13:58:00,
2013-07-24 10:00:00,76.5,68.7,29.77,WNW,292,1.2,1.2,77,0.00,CLR,,0.00,WeatherDisplay:10.37,2013-07-24 14:00:00,
2013-07-24 10:01:00,76.5,69.1,29.77,WNW,292,1.2,0.0,78,0.00,CLR,,0.00,WeatherDisplay:10.37,2013-07-24 14:01:00,
2013-07-24 10:02:00,76.5,69.1,29.77,ESE,112,1.2,0.0,78,0.00,CLR,,0.00,WeatherDisplay:10.37,2013-07-24 14:02:00,
2013-07-24 10:04:00,76.5,69.1,29.77,NW,315,1.2,1.2,78,0.00,CLR,,0.00,WeatherDisplay:10.37,2013-07-24 14:04:00,
2013-07-24 10:05:00,76.5,69.1,29.77,NW,315,1.2,1.2,78,0.00,CLR,,0.00,WeatherDisplay:10.37,2013-07-24 14:05:00,
2013-07-24 10:06:00,76.5,69.1,29.77,NW,315,1.2,0.0,78,0.00,CLR,,0.00,WeatherDisplay:10.37,2013-07-24 14:06:00,
2013-07-24 10:07:00,76.5,69.1,29.77,NW,315,0.5,0.5,78,0.00,CLR,,0.00,WeatherDisplay:10.37,2013-07-24 14:07:00,
2013-07-24 10:09:00,76.5,69.1,29.77,NNW,338,0.0,0.2,78,0.00,CLR,,0.00,WeatherDisplay:10.37,2013-07-24 14:09:00,
2013-07-24 10:10:00,76.5,69.1,29.77,South,180,0.0,0.5,78,0.00,CLR,,0.00,WeatherDisplay:10.37,2013-07-24 14:10:00,
2013-07-24 10:12:00,76.5,69.1,29.77,NE,45,1.2,1.2,78,0.00,CLR,,0.00,WeatherDisplay:10.37,2013-07-24 14:12:00,
2013-07-24 10:14:00,76.5,69.1,29.77,NE,45,0.0,0.0,78,0.00,CLR,,0.00,WeatherDisplay:10.37,2013-07-24 14:14:00,
2013-07-24 10:15:00,76.6,69.3,29.77,NNE,22,0.0,0.0,78,0.00,CLR,,0.00,WeatherDisplay:10.37,2013-07-24 14:15:00,
2013-07-24 10:17:00,76.6,69.3,29.77,NNW,338,1.2,1.2,78,0.00,CLR,,0.00,WeatherDisplay:10.37,2013-07-24 14:17:00,
2013-07-24 10:18:00,76.6,69.3,29.77,NNW,338,1.2,1.2,78,0.00,CLR,,0.00,WeatherDisplay:10.37,2013-07-24 14:18:00,
2013-07-24 10:19:00,76.6,69.3,29.77,NNW,338,1.2,1.2,78,0.00,CLR,,0.00,WeatherDisplay:10.37,2013-07-24 14:19:00,
2013-07-24 10:20:00,76.6,69.3,29.77,NNW,338,1.2,1.2,78,0.00,CLR,,0.00,WeatherDisplay:10.37,2013-07-24 14:20:00,
2013-07-24 10:23:00,76.8,69.4,29.78,WSW,248,0.0,0.9,78,0.00,CLR,,0.00,WeatherDisplay:10.37,2013-07-24 14:23:00,
2013-07-24 10:25:00,77.0,69.6,29.78,NE,45,1.4,1.4,78,0.00,CLR,,0.00,WeatherDisplay:10.37,2013-07-24 14:25:00,
2013-07-24 10:28:00,77.0,69.6,29.78,NNE,22,1.2,1.6,78,0.00,CLR,,0.00,WeatherDisplay:10.37,2013-07-24 14:28:00,
2013-07-24 10:29:00,77.0,69.6,29.78,NNE,22,1.2,0.0,78,0.00,CLR,,0.00,WeatherDisplay:10.37,2013-07-24 14:29:00,
2013-07-24 10:30:00,77.2,69.8,29.78,WNW,292,1.2,1.2,78,0.00,CLR,,0.00,WeatherDisplay:10.37,2013-07-24 14:30:00,
2013-07-24 10:33:00,77.2,69.0,29.78,NW,315,1.2,1.2,76,0.00,CLR,,0.00,WeatherDisplay:10.37,2013-07-24 14:33:00,
2013-07-24 10:34:00,77.2,69.0,29.78,West,270,1.2,1.2,76,0.00,CLR,,0.00,WeatherDisplay:10.37,2013-07-24 14:34:00,
2013-07-24 10:35:00,77.4,69.2,29.78,WSW,248,2.3,2.3,76,0.00,CLR,,0.00,WeatherDisplay:10.37,2013-07-24 14:35:00,
2013-07-24 10:36:00,77.4,69.2,29.78,NNW,338,2.3,2.3,76,0.00,CLR,,0.00,WeatherDisplay:10.37,2013-07-24 14:36:00,
2013-07-24 10:38:00,77.4,68.8,29.78,NW,315,2.3,2.3,75,0.00,CLR,,0.00,WeatherDisplay:10.37,2013-07-24 14:38:00,
2013-07-24 10:39:00,77.4,68.8,29.78,NW,315,2.3,2.3,75,0.00,CLR,,0.00,WeatherDisplay:10.37,2013-07-24 14:39:00,
2013-07-24 10:40:00,77.4,68.8,29.78,West,270,2.3,2.3,75,0.00,CLR,,0.00,WeatherDisplay:10.37,2013-07-24 14:40:00,
2013-07-24 10:42:00,77.4,68.8,29.78,West,270,2.3,2.3,75,0.00,CLR,,0.00,WeatherDisplay:10.37,2013-07-24 14:42:00,
2013-07-24 10:43:00,77.4,68.8,29.78,NW,315,2.3,2.3,75,0.00,CLR,,0.00,WeatherDisplay:10.37,2013-07-24 14:43:00,
2013-07-24 10:44:00,77.4,68.8,29.78,NW,315,2.3,2.3,75,0.00,CLR,,0.00,WeatherDisplay:10.37,2013-07-24 14:44:00,
2013-07-24 10:46:00,77.4,68.8,29.78,WNW,292,2.3,2.3,75,0.00,CLR,,0.00,WeatherDisplay:10.37,2013-07-24 14:46:00,
2013-07-24 10:47:00,77.4,68.8,29.78,South,180,2.3,2.3,75,0.00,CLR,,0.00,WeatherDisplay:10.37,2013-07-24 14:47:00,
2013-07-24 10:48:00,77.5,69.0,29.78,ESE,112,1.2,1.2,75,0.00,CLR,,0.00,WeatherDisplay:10.37,2013-07-24 14:48:00,
2013-07-24 10:49:00,77.5,69.0,29.78,ESE,112,1.2,1.2,75,0.00,CLR,,0.00,WeatherDisplay:10.37,2013-07-24 14:49:00,
2013-07-24 10:51:00,77.5,69.0,29.78,NW,315,1.2,2.6,75,0.00,CLR,,0.00,WeatherDisplay:10.37,2013-07-24 14:51:00,
2013-07-24 10:52:00,77.5,69.0,29.78,NE,45,2.3,2.3,75,0.00,CLR,,0.00,WeatherDisplay:10.37,2013-07-24 14:52:00,
2013-07-24 10:53:00,77.5,69.0,29.78,NW,315,2.3,2.3,75,0.00,CLR,,0.00,WeatherDisplay:10.37,2013-07-24 14:53:00,
2013-07-24 10:54:00,77.5,69.0,29.78,North,360,1.2,1.2,75,0.00,CLR,,0.00,WeatherDisplay:10.37,2013-07-24 14:54:00,
2013-07-24 10:55:00,77.5,69.0,29.78,North,360,1.2,1.2,75,0.00,CLR,,0.00,WeatherDisplay:10.37,2013-07-24 14:55:00,
2013-07-24 10:56:00,77.7,69.2,29.79,NNW,338,1.2,0.0,75,0.00,CLR,,0.00,WeatherDisplay:10.37,2013-07-24 14:56:00,
2013-07-24 10:57:00,77.5,68.6,29.79,West,270,1.2,1.2,74,0.00,CLR,,0.00,WeatherDisplay:10.37,2013-07-24 14:57:00,
2013-07-24 10:59:00,77.7,68.8,29.79,NW,315,1.2,1.2,74,0.00,CLR,,0.00,WeatherDisplay:10.37,2013-07-24 14:59:00,
2013-07-24 11:00:00,77.5,68.6,29.79,NNE,22,1.2,1.2,74,0.00,CLR,,0.00,WeatherDisplay:10.37,2013-07-24 15:00:00,
2013-07-24 11:01:00,77.5,68.6,29.79,SW,225,1.2,1.2,74,0.00,CLR,,0.00,WeatherDisplay:10.37,2013-07-24 15:01:00,
2013-07-24 11:03:00,77.5,69.0,29.79,ESE,112,1.2,1.2,75,0.00,CLR,,0.00,WeatherDisplay:10.37,2013-07-24 15:03:00,
2013-07-24 11:04:00,77.5,69.0,29.79,East,90,1.2,1.2,75,0.00,CLR,,0.00,WeatherDisplay:10.37,2013-07-24 15:04:00,
2013-07-24 11:05:00,77.5,68.6,29.79,NE,45,1.2,1.2,74,0.00,CLR,,0.00,WeatherDisplay:10.37,2013-07-24 15:05:00,
2013-07-24 11:07:00,77.5,68.6,29.79,NW,315,1.2,0.0,74,0.00,CLR,,0.00,WeatherDisplay:10.37,2013-07-24 15:07:00,
2013-07-24 11:08:00,77.5,68.6,29.79,NW,315,0.0,0.0,74,0.00,CLR,,0.00,WeatherDisplay:10.37,2013-07-24 15:08:00,
2013-07-24 11:09:00,77.5,68.6,29.79,West,270,0.0,0.7,74,0.00,CLR,,0.00,WeatherDisplay:10.37,2013-07-24 15:09:00,
2013-07-24 11:10:00,77.7,68.8,29.79,WNW,292,2.3,0.0,74,0.00,CLR,,0.00,WeatherDisplay:10.37,2013-07-24 15:10:00,
2013-07-24 11:11:00,77.7,68.8,29.79,WNW,292,2.3,0.0,74,0.00,CLR,,0.00,WeatherDisplay:10.37,2013-07-24 15:11:00,
2013-07-24 11:12:00,77.7,69.2,29.79,NNE,22,2.3,2.3,75,0.00,CLR,,0.00,WeatherDisplay:10.37,2013-07-24 15:12:00,
2013-07-24 11:13:00,77.7,69.2,29.79,NNE,22,2.3,2.3,75,0.00,CLR,,0.00,WeatherDisplay:10.37,2013-07-24 15:13:00,
2013-07-24 11:14:00,77.7,68.8,29.79,WNW,292,2.3,2.3,74,0.00,CLR,,0.00,WeatherDisplay:10.37,2013-07-24 15:14:00,
2013-07-24 11:15:00,77.5,68.6,29.79,WNW,292,1.2,0.0,74,0.00,CLR,,0.00,WeatherDisplay:10.37,2013-07-24 15:15:00,
2013-07-24 11:16:00,77.5,68.6,29.79,WNW,292,1.2,0.0,74,0.00,CLR,,0.00,WeatherDisplay:10.37,2013-07-24 15:16:00,
2013-07-24 11:17:00,77.9,68.5,29.79,West,270,1.2,1.6,73,0.00,CLR,,0.00,WeatherDisplay:10.37,2013-07-24 15:17:00,
2013-07-24 11:18:00,77.7,68.4,29.79,North,360,1.2,1.2,73,0.00,CLR,,0.00,WeatherDisplay:10.37,2013-07-24 15:18:00,
2013-07-24 11:19:00,77.7,68.4,29.79,West,270,1.2,4.0,73,0.00,CLR,,0.00,WeatherDisplay:10.37,2013-07-24 15:19:00,
2013-07-24 11:21:00,77.7,68.4,29.79,NW,315,4.6,4.6,73,0.00,CLR,,0.00,WeatherDisplay:10.37,2013-07-24 15:21:00,
2013-07-24 11:22:00,77.7,68.4,29.79,SW,225,4.6,4.6,73,0.00,CLR,,0.00,WeatherDisplay:10.37,2013-07-24 15:22:00,
2013-07-24 11:23:00,77.5,67.8,29.79,NE,45,1.2,1.2,72,0.00,CLR,,0.00,WeatherDisplay:10.37,2013-07-24 15:23:00,
2013-07-24 11:25:00,77.5,68.2,29.79,SSE,158,2.3,2.3,73,0.00,CLR,,0.00,WeatherDisplay:10.37,2013-07-24 15:25:00,
2013-07-24 11:27:00,77.5,68.2,29.79,NW,315,2.3,2.3,73,0.00,CLR,,0.00,WeatherDisplay:10.37,2013-07-24 15:27:00,
2013-07-24 11:29:00,77.5,68.2,29.79,NW,315,1.2,1.4,73,0.00,CLR,,0.00,WeatherDisplay:10.37,2013-07-24 15:29:00,
2013-07-24 11:30:00,77.5,68.2,29.80,ESE,112,1.2,1.2,73,0.00,CLR,,0.00,WeatherDisplay:10.37,2013-07-24 15:30:00,
2013-07-24 11:32:00,77.4,68.0,29.80,ENE,68,1.2,1.4,73,0.00,CLR,,0.00,WeatherDisplay:10.37,2013-07-24 15:32:00,
2013-07-24 11:34:00,77.4,68.4,29.80,NW,315,1.2,1.2,74,0.00,CLR,,0.00,WeatherDisplay:10.37,2013-07-24 15:34:00,
2013-07-24 11:35:00,77.4,68.4,29.80,SSE,158,0.0,0.5,74,0.00,CLR,,0.00,WeatherDisplay:10.37,2013-07-24 15:35:00,
2013-07-24 11:37:00,77.2,68.2,29.80,NE,45,0.0,0.5,74,0.00,CLR,,0.00,WeatherDisplay:10.37,2013-07-24 15:37:00,
2013-07-24 11:39:00,77.2,68.2,29.80,South,180,0.0,0.0,74,0.00,CLR,,0.00,WeatherDisplay:10.37,2013-07-24 15:39:00,
2013-07-24 11:41:00,77.4,68.4,29.80,West,270,1.2,1.2,74,0.00,CLR,,0.00,WeatherDisplay:10.37,2013-07-24 15:41:00,
2013-07-24 11:42:00,77.2,68.2,29.81,South,180,1.2,1.2,74,0.00,CLR,,0.00,WeatherDisplay:10.37,2013-07-24 15:42:00,
2013-07-24 11:43:00,77.2,68.2,29.81,South,180,1.2,1.2,74,0.00,CLR,,0.00,WeatherDisplay:10.37,2013-07-24 15:43:00,
2013-07-24 11:44:00,77.4,68.8,29.81,South,180,0.0,1.2,75,0.00,CLR,,0.00,WeatherDisplay:10.37,2013-07-24 15:44:00,
2013-07-24 11:47:00,77.4,68.4,29.81,WSW,248,1.2,1.2,74,0.00,CLR,,0.00,WeatherDisplay:10.37,2013-07-24 15:47:00,
2013-07-24 11:48:00,77.4,68.4,29.81,SSW,202,1.2,1.2,74,0.00,CLR,,0.00,WeatherDisplay:10.37,2013-07-24 15:48:00,
2013-07-24 11:49:00,77.5,68.6,29.81,WSW,248,1.2,0.0,74,0.00,CLR,,0.00,WeatherDisplay:10.37,2013-07-24 15:49:00,
2013-07-24 11:52:00,77.5,68.6,29.81,North,360,1.2,2.4,74,0.00,CLR,,0.00,WeatherDisplay:10.37,2013-07-24 15:52:00,
2013-07-24 11:53:00,77.7,68.8,29.81,WSW,248,2.3,2.3,74,0.00,CLR,,0.00,WeatherDisplay:10.37,2013-07-24 15:53:00,
2013-07-24 11:54:00,77.7,68.8,29.81,WNW,292,2.3,2.3,74,0.00,CLR,,0.00,WeatherDisplay:10.37,2013-07-24 15:54:00,
2013-07-24 11:57:00,77.9,68.1,29.82,West,270,2.3,2.3,72,0.00,CLR,,0.00,WeatherDisplay:10.37,2013-07-24 15:57:00,
2013-07-24 11:58:00,77.9,68.1,29.82,West,270,2.3,2.3,72,0.00,CLR,,0.00,WeatherDisplay:10.37,2013-07-24 15:58:00,
2013-07-24 11:59:00,77.9,68.1,29.82,WNW,292,2.3,2.3,72,0.00,CLR,,0.00,WeatherDisplay:10.37,2013-07-24 15:59:00,
2013-07-24 12:02:00,78.1,68.7,29.82,ENE,68,1.2,1.2,73,0.00,CLR,,0.00,WeatherDisplay:10.37,2013-07-24 16:02:00,
2013-07-24 12:03:00,78.1,68.7,29.82,ENE,68,1.2,1.2,73,0.00,CLR,,0.00,WeatherDisplay:10.37,2013-07-24 16:03:00,
2013-07-24 12:04:00,78.1,68.7,29.82,East,90,1.2,0.0,73,0.00,CLR,,0.00,WeatherDisplay:10.37,2013-07-24 16:04:00,
2013-07-24 12:05:00,78.1,68.7,29.82,East,90,1.2,0.0,73,0.00,CLR,,0.00,WeatherDisplay:10.37,2013-07-24 16:05:00,
2013-07-24 12:07:00,78.3,68.9,29.82,WSW,248,2.3,2.3,73,0.00,CLR,,0.00,WeatherDisplay:10.37,2013-07-24 16:07:00,
2013-07-24 12:08:00,78.3,68.9,29.82,WSW,248,2.3,2.3,73,0.00,CLR,,0.00,WeatherDisplay:10.37,2013-07-24 16:08:00,
2013-07-24 12:10:00,78.3,68.1,29.82,WNW,292,2.3,2.3,71,0.00,CLR,,0.00,WeatherDisplay:10.37,2013-07-24 16:10:00,
2013-07-24 12:11:00,78.3,68.1,29.82,NNW,338,2.3,2.3,71,0.00,CLR,,0.00,WeatherDisplay:10.37,2013-07-24 16:11:00,
2013-07-24 12:13:00,78.1,67.9,29.82,NNE,22,1.2,1.2,71,0.00,CLR,,0.00,WeatherDisplay:10.37,2013-07-24 16:13:00,
2013-07-24 12:15:00,78.1,67.9,29.82,SSE,158,1.2,1.2,71,0.00,CLR,,0.00,WeatherDisplay:10.37,2013-07-24 16:15:00,
2013-07-24 12:16:00,78.1,67.9,29.82,SSE,158,1.2,1.2,71,0.00,CLR,,0.00,WeatherDisplay:10.37,2013-07-24 16:16:00,
2013-07-24 12:18:00,78.1,67.9,29.82,West,270,1.2,1.2,71,0.00,CLR,,0.00,WeatherDisplay:10.37,2013-07-24 16:18:00,
2013-07-24 12:19:00,78.1,67.9,29.82,NNW,338,1.2,1.8,71,0.00,CLR,,0.00,WeatherDisplay:10.37,2013-07-24 16:19:00,
2013-07-24 12:21:00,78.3,68.1,29.82,ESE,112,2.3,0.0,71,0.00,CLR,,0.00,WeatherDisplay:10.37,2013-07-24 16:21:00,
2013-07-24 12:22:00,78.3,68.1,29.82,ESE,112,2.3,0.0,71,0.00,CLR,,0.00,WeatherDisplay:10.37,2013-07-24 16:22:00,
2013-07-24 12:23:00,78.1,67.9,29.82,North,360,2.3,2.3,71,0.00,CLR,,0.00,WeatherDisplay:10.37,2013-07-24 16:23:00,
2013-07-24 12:24:00,78.3,68.1,29.82,WNW,292,1.2,1.2,71,0.00,CLR,,0.00,WeatherDisplay:10.37,2013-07-24 16:24:00,
2013-07-24 12:27:00,78.3,68.1,29.82,NNW,338,2.3,2.3,71,0.00,CLR,,0.00,WeatherDisplay:10.37,2013-07-24 16:27:00,
2013-07-24 12:28:00,78.3,68.1,29.82,NE,45,2.3,2.3,71,0.00,CLR,,0.00,WeatherDisplay:10.37,2013-07-24 16:28:00,
2013-07-24 12:29:00,78.3,68.1,29.82,NNW,338,1.2,1.8,71,0.00,CLR,,0.00,WeatherDisplay:10.37,2013-07-24 16:29:00,
2013-07-24 12:32:00,78.3,68.1,29.82,West,270,2.3,2.3,71,0.00,CLR,,0.00,WeatherDisplay:10.37,2013-07-24 16:32:00,
2013-07-24 12:33:00,78.3,68.1,29.82,West,270,2.3,2.3,71,0.00,CLR,,0.00,WeatherDisplay:10.37,2013-07-24 16:33:00,
2013-07-24 12:34:00,78.3,68.1,29.82,NW,315,1.2,1.6,71,0.00,CLR,,0.00,WeatherDisplay:10.37,2013-07-24 16:34:00,
2013-07-24 12:38:00,78.3,67.7,29.82,NNW,338,2.3,2.3,70,0.00,CLR,,0.00,WeatherDisplay:10.37,2013-07-24 16:38:00,
2013-07-24 12:39:00,78.3,67.7,29.82,SE,135,2.3,2.3,70,0.00,CLR,,0.00,WeatherDisplay:10.37,2013-07-24 16:39:00,
2013-07-24 12:43:00,78.3,67.3,29.82,SW,225,3.5,3.5,69,0.00,CLR,,0.00,WeatherDisplay:10.37,2013-07-24 16:43:00,
2013-07-24 12:44:00,78.3,67.3,29.82,South,180,3.5,3.5,69,0.00,CLR,,0.00,WeatherDisplay:10.37,2013-07-24 16:44:00,
2013-07-24 12:48:00,78.3,67.3,29.82,NNW,338,1.8,1.8,69,0.00,CLR,,0.00,WeatherDisplay:10.37,2013-07-24 16:48:00,
2013-07-24 12:49:00,78.3,67.3,29.82,NNW,338,1.2,1.8,69,0.00,CLR,,0.00,WeatherDisplay:10.37,2013-07-24 16:49:00,
2013-07-24 12:54:00,78.4,67.0,29.82,NNW,338,2.3,2.3,68,0.00,CLR,,0.00,WeatherDisplay:10.37,2013-07-24 16:54:00,
2013-07-24 12:55:00,78.6,67.2,29.83,SSW,202,3.5,3.5,68,0.00,CLR,,0.00,WeatherDisplay:10.37,2013-07-24 16:55:00,
2013-07-24 12:59:00,78.6,66.7,29.83,NW,315,4.6,4.6,67,0.00,CLR,,0.00,WeatherDisplay:10.37,2013-07-24 16:59:00,
2013-07-24 13:00:00,78.6,67.2,29.82,West,270,4.6,4.6,68,0.00,CLR,,0.00,WeatherDisplay:10.37,2013-07-24 17:00:00,
2013-07-24 13:04:00,78.8,67.3,29.82,NNE,22,2.3,2.3,68,0.00,CLR,,0.00,WeatherDisplay:10.37,2013-07-24 17:04:00,
2013-07-24 13:05:00,78.8,67.3,29.82,SSW,202,2.3,2.4,68,0.00,CLR,,0.00,WeatherDisplay:10.37,2013-07-24 17:05:00,
2013-07-24 13:09:00,79.2,67.3,29.83,NNE,22,2.3,2.3,67,0.00,CLR,,0.00,WeatherDisplay:10.37,2013-07-24 17:09:00,
2013-07-24 13:10:00,79.2,67.3,29.83,NNE,22,2.3,2.3,67,0.00,CLR,,0.00,WeatherDisplay:10.37,2013-07-24 17:10:00,
2013-07-24 13:15:00,79.2,67.3,29.82,SW,225,0.0,0.5,67,0.00,CLR,,0.00,WeatherDisplay:10.37,2013-07-24 17:15:00,
2013-07-24 13:16:00,79.3,67.4,29.82,NNE,22,0.0,0.9,67,0.00,CLR,,0.00,WeatherDisplay:10.37,2013-07-24 17:16:00,
2013-07-24 13:20:00,79.3,68.3,29.82,South,180,1.2,1.8,69,0.00,CLR,,0.00,WeatherDisplay:10.37,2013-07-24 17:20:00,
2013-07-24 13:21:00,79.3,67.9,29.82,WSW,248,2.3,2.3,68,0.00,CLR,,0.00,WeatherDisplay:10.37,2013-07-24 17:21:00,
2013-07-24 13:25:00,79.3,67.0,29.83,NW,315,4.6,4.6,66,0.00,CLR,,0.00,WeatherDisplay:10.37,2013-07-24 17:25:00,
2013-07-24 13:26:00,79.3,66.5,29.83,NW,315,4.6,4.6,65,0.00,CLR,,0.00,WeatherDisplay:10.37,2013-07-24 17:26:00,
2013-07-24 13:27:00,79.3,67.0,29.82,NW,315,3.5,3.5,66,0.00,CLR,,0.00,WeatherDisplay:10.37,2013-07-24 17:27:00,
2013-07-24 13:30:00,79.2,66.8,29.83,South,180,2.3,2.3,66,0.00,CLR,,0.00,WeatherDisplay:10.37,2013-07-24 17:30:00,
2013-07-24 13:31:00,79.2,66.8,29.83,South,180,2.3,2.3,66,0.00,CLR,,0.00,WeatherDisplay:10.37,2013-07-24 17:31:00,
2013-07-24 13:32:00,79.2,66.8,29.83,North,360,1.2,1.4,66,0.00,CLR,,0.00,WeatherDisplay:10.37,2013-07-24 17:32:00,
2013-07-24 13:35:00,79.0,66.2,29.83,WNW,292,3.5,3.5,65,0.00,CLR,,0.00,WeatherDisplay:10.37,2013-07-24 17:35:00,
2013-07-24 13:37:00,79.0,66.2,29.84,South,180,3.5,3.5,65,0.00,CLR,,0.00,WeatherDisplay:10.37,2013-07-24 17:37:00,
2013-07-24 13:40:00,78.8,66.5,29.83,SSW,202,2.3,2.3,66,0.00,CLR,,0.00,WeatherDisplay:10.37,2013-07-24 17:40:00,
2013-07-24 13:42:00,78.6,66.3,29.83,NW,315,1.2,1.6,66,0.00,CLR,,0.00,WeatherDisplay:10.37,2013-07-24 17:42:00,
2013-07-24 13:43:00,78.6,66.3,29.83,NW,315,1.2,1.2,66,0.00,CLR,,0.00,WeatherDisplay:10.37,2013-07-24 17:43:00,
2013-07-24 13:46:00,78.4,66.1,29.84,SSW,202,1.2,1.2,66,0.00,CLR,,0.00,WeatherDisplay:10.37,2013-07-24 17:46:00,
2013-07-24 13:47:00,78.4,66.1,29.84,SSE,158,1.2,1.4,66,0.00,CLR,,0.00,WeatherDisplay:10.37,2013-07-24 17:47:00,
2013-07-24 13:48:00,78.4,66.1,29.84,NNW,338,1.2,1.2,66,0.00,CLR,,0.00,WeatherDisplay:10.37,2013-07-24 17:48:00,
2013-07-24 13:51:00,78.4,66.1,29.84,NNW,338,2.3,2.3,66,0.00,CLR,,0.00,WeatherDisplay:10.37,2013-07-24 17:51:00,
2013-07-24 13:52:00,78.4,66.6,29.84,SW,225,2.3,2.3,67,0.00,CLR,,0.00,WeatherDisplay:10.37,2013-07-24 17:52:00,
2013-07-24 13:53:00,78.4,66.6,29.84,NW,315,2.3,0.0,67,0.00,CLR,,0.00,WeatherDisplay:10.37,2013-07-24 17:53:00,
2013-07-24 13:56:00,78.6,66.3,29.84,NW,315,2.3,2.3,66,0.00,CLR,,0.00,WeatherDisplay:10.37,2013-07-24 17:56:00,
2013-07-24 13:57:00,78.6,66.3,29.84,NW,315,1.2,1.2,66,0.00,CLR,,0.00,WeatherDisplay:10.37,2013-07-24 17:57:00,
2013-07-24 13:58:00,78.6,66.3,29.84,WSW,248,1.2,1.8,66,0.00,CLR,,0.00,WeatherDisplay:10.37,2013-07-24 17:58:00,
2013-07-24 14:02:00,78.6,66.3,29.84,WNW,292,1.2,1.6,66,0.00,CLR,,0.00,WeatherDisplay:10.37,2013-07-24 18:02:00,
2013-07-24 14:03:00,78.6,66.3,29.84,WNW,292,1.2,1.6,66,0.00,CLR,,0.00,WeatherDisplay:10.37,2013-07-24 18:03:00,
2013-07-24 14:07:00,78.8,66.0,29.84,West,270,2.3,2.3,65,0.00,CLR,,0.00,WeatherDisplay:10.37,2013-07-24 18:07:00,
2013-07-24 14:08:00,78.8,66.5,29.85,NW,315,2.3,2.3,66,0.00,CLR,,0.00,WeatherDisplay:10.37,2013-07-24 18:08:00,
2013-07-24 14:12:00,78.8,66.0,29.84,WSW,248,2.3,2.4,65,0.00,CLR,,0.00,WeatherDisplay:10.37,2013-07-24 18:12:00,
2013-07-24 14:13:00,78.8,65.6,29.84,NNW,338,2.3,2.9,64,0.00,CLR,,0.00,WeatherDisplay:10.37,2013-07-24 18:13:00,
2013-07-24 14:17:00,78.6,65.9,29.84,SW,225,2.3,2.3,65,0.00,CLR,,0.00,WeatherDisplay:10.37,2013-07-24 18:17:00,
2013-07-24 14:18:00,78.6,65.9,29.84,NW,315,2.3,2.3,65,0.00,CLR,,0.00,WeatherDisplay:10.37,2013-07-24 18:18:00,
2013-07-24 14:19:00,78.6,65.9,29.85,WNW,292,1.2,1.6,65,0.00,CLR,,0.00,WeatherDisplay:10.37,2013-07-24 18:19:00,
2013-07-24 14:22:00,78.6,66.3,29.84,WNW,292,2.3,2.3,66,0.00,CLR,,0.00,WeatherDisplay:10.37,2013-07-24 18:22:00,
2013-07-24 14:23:00,78.6,66.3,29.84,NNE,22,1.2,1.4,66,0.00,CLR,,0.00,WeatherDisplay:10.37,2013-07-24 18:23:00,
2013-07-24 14:24:00,78.6,66.3,29.84,NNW,338,1.2,1.2,66,0.00,CLR,,0.00,WeatherDisplay:10.37,2013-07-24 18:24:00,
2013-07-24 14:27:00,78.6,65.9,29.84,NNW,338,2.3,2.3,65,0.00,CLR,,0.00,WeatherDisplay:10.37,2013-07-24 18:27:00,
2013-07-24 14:28:00,78.6,65.9,29.84,NNW,338,2.3,2.3,65,0.00,CLR,,0.00,WeatherDisplay:10.37,2013-07-24 18:28:00,
2013-07-24 14:29:00,78.8,66.0,29.85,WNW,292,2.3,3.3,65,0.00,CLR,,0.00,WeatherDisplay:10.37,2013-07-24 18:29:00,
2013-07-24 14:33:00,79.0,66.6,29.85,ESE,112,3.5,3.5,66,0.00,CLR,,0.00,WeatherDisplay:10.37,2013-07-24 18:33:00,
2013-07-24 14:34:00,79.0,66.6,29.85,WSW,248,3.5,3.5,66,0.00,CLR,,0.00,WeatherDisplay:10.37,2013-07-24 18:34:00,
2013-07-24 14:38:00,79.3,66.1,29.86,WNW,292,4.6,4.7,64,0.00,CLR,,0.00,WeatherDisplay:10.37,2013-07-24 18:38:00,
2013-07-24 14:39:00,79.2,65.9,29.86,NNW,338,4.6,4.6,64,0.00,CLR,,0.00,WeatherDisplay:10.37,2013-07-24 18:39:00,
2013-07-24 14:43:00,79.0,65.8,29.86,NNW,338,2.3,2.3,64,0.00,CLR,,0.00,WeatherDisplay:10.37,2013-07-24 18:43:00,
2013-07-24 14:44:00,79.0,66.2,29.87,NE,45,2.3,2.3,65,0.00,CLR,,0.00,WeatherDisplay:10.37,2013-07-24 18:44:00,
2013-07-24 14:45:00,79.0,66.2,29.87,NNE,22,2.3,4.5,65,0.00,CLR,,0.00,WeatherDisplay:10.37,2013-07-24 18:45:00,
2013-07-24 14:48:00,78.6,65.4,29.87,NW,315,2.3,2.3,64,0.00,CLR,,0.00,WeatherDisplay:10.37,2013-07-24 18:48:00,
2013-07-24 14:49:00,78.6,65.4,29.87,NW,315,2.3,2.3,64,0.00,CLR,,0.00,WeatherDisplay:10.37,2013-07-24 18:49:00,
2013-07-24 14:50:00,78.6,65.4,29.87,North,360,2.3,2.6,64,0.00,CLR,,0.00,WeatherDisplay:10.37,2013-07-24 18:50:00,
2013-07-24 14:53:00,78.3,65.1,29.87,North,360,2.3,2.3,64,0.00,CLR,,0.00,WeatherDisplay:10.37,2013-07-24 18:53:00,
2013-07-24 14:54:00,78.1,64.9,29.87,NNW,338,2.3,2.3,64,0.00,CLR,,0.00,WeatherDisplay:10.37,2013-07-24 18:54:00,
2013-07-24 14:56:00,78.1,64.9,29.87,South,180,2.3,2.3,64,0.00,CLR,,0.00,WeatherDisplay:10.37,2013-07-24 18:56:00,
2013-07-24 14:59:00,77.9,64.7,29.88,WSW,248,4.6,4.6,64,0.00,CLR,,0.00,WeatherDisplay:10.37,2013-07-24 18:59:00,
2013-07-24 15:00:00,77.9,64.7,29.88,NW,315,4.6,4.6,64,0.00,CLR,,0.00,WeatherDisplay:10.37,2013-07-24 19:00:00,
2013-07-24 15:02:00,77.9,65.2,29.87,South,180,2.3,2.3,65,0.00,CLR,,0.00,WeatherDisplay:10.37,2013-07-24 19:02:00,
2013-07-24 15:04:00,77.9,64.7,29.88,NW,315,1.2,1.2,64,0.00,CLR,,0.00,WeatherDisplay:10.37,2013-07-24 19:04:00,
2013-07-24 15:05:00,77.9,64.7,29.88,NW,315,1.2,1.2,64,0.00,CLR,,0.00,WeatherDisplay:10.37,2013-07-24 19:05:00,
2013-07-24 15:07:00,77.9,64.7,29.87,NNE,22,1.2,1.2,64,0.00,CLR,,0.00,WeatherDisplay:10.37,2013-07-24 19:07:00,
2013-07-24 15:09:00,77.9,64.7,29.88,WNW,292,0.0,0.2,64,0.00,CLR,,0.00,WeatherDisplay:10.37,2013-07-24 19:09:00,
2013-07-24 15:10:00,77.9,64.7,29.88,WNW,292,0.0,0.2,64,0.00,CLR,,0.00,WeatherDisplay:10.37,2013-07-24 19:10:00,
2013-07-24 15:12:00,77.7,65.0,29.88,SW,225,1.2,1.2,65,0.00,CLR,,0.00,WeatherDisplay:10.37,2013-07-24 19:12:00,
2013-07-24 15:15:00,77.9,64.7,29.88,NW,315,4.6,4.6,64,0.00,CLR,,0.00,WeatherDisplay:10.37,2013-07-24 19:15:00,
2013-07-24 15:17:00,77.9,65.2,29.88,NNE,22,1.2,1.2,65,0.00,CLR,,0.00,WeatherDisplay:10.37,2013-07-24 19:17:00,
2013-07-24 15:20:00,77.7,64.6,29.88,WNW,292,2.3,2.3,64,0.00,CLR,,0.00,WeatherDisplay:10.37,2013-07-24 19:20:00,
2013-07-24 15:23:00,77.7,64.6,29.88,North,360,2.3,2.3,64,0.00,CLR,,0.00,WeatherDisplay:10.37,2013-07-24 19:23:00,
2013-07-24 15:25:00,77.7,64.6,29.88,WNW,292,3.5,3.5,64,0.00,CLR,,0.00,WeatherDisplay:10.37,2013-07-24 19:25:00,
2013-07-24 15:26:00,77.7,64.6,29.88,SE,135,3.5,3.5,64,0.00,CLR,,0.00,WeatherDisplay:10.37,2013-07-24 19:26:00,
2013-07-24 15:28:00,77.9,64.3,29.88,North,360,3.5,3.5,63,0.00,CLR,,0.00,WeatherDisplay:10.37,2013-07-24 19:28:00,
2013-07-24 15:30:00,77.9,64.3,29.88,NNW,338,3.5,3.5,63,0.00,CLR,,0.00,WeatherDisplay:10.37,2013-07-24 19:30:00,
2013-07-24 15:31:00,77.9,64.7,29.89,ENE,68,3.5,3.5,64,0.00,CLR,,0.00,WeatherDisplay:10.37,2013-07-24 19:31:00,
2013-07-24 15:33:00,77.9,65.2,29.88,NE,45,2.3,2.3,65,0.00,CLR,,0.00,WeatherDisplay:10.37,2013-07-24 19:33:00,
2013-07-24 15:35:00,77.9,65.2,29.88,North,360,1.2,1.6,65,0.00,CLR,,0.00,WeatherDisplay:10.37,2013-07-24 19:35:00,
2013-07-24 15:36:00,77.9,64.7,29.89,SW,225,1.2,5.9,64,0.00,CLR,,0.00,WeatherDisplay:10.37,2013-07-24 19:36:00,
2013-07-24 15:38:00,78.1,64.9,29.89,East,90,5.8,5.8,64,0.00,CLR,,0.00,WeatherDisplay:10.37,2013-07-24 19:38:00,
2013-07-24 15:40:00,78.3,65.1,29.88,ESE,112,1.2,1.2,64,0.00,CLR,,0.00,WeatherDisplay:10.37,2013-07-24 19:40:00,
2013-07-24 15:42:00,78.3,64.6,29.89,NW,315,2.3,2.3,63,0.00,CLR,,0.00,WeatherDisplay:10.37,2013-07-24 19:42:00,
2013-07-24 15:44:00,78.4,65.2,29.89,NNW,338,2.3,2.3,64,0.00,CLR,,0.00,WeatherDisplay:10.37,2013-07-24 19:44:00,
2013-07-24 15:45:00,78.6,65.4,29.89,NNE,22,1.2,1.2,64,0.00,CLR,,0.00,WeatherDisplay:10.37,2013-07-24 19:45:00,
2013-07-24 15:46:00,78.6,65.4,29.89,NNE,22,1.2,1.2,64,0.00,CLR,,0.00,WeatherDisplay:10.37,2013-07-24 19:46:00,
2013-07-24 15:47:00,78.6,65.4,29.89,ENE,68,2.3,2.3,64,0.00,CLR,,0.00,WeatherDisplay:10.37,2013-07-24 19:47:00,
2013-07-24 15:48:00,78.6,65.4,29.89,NW,315,2.3,2.3,64,0.00,CLR,,0.00,WeatherDisplay:10.37,2013-07-24 19:48:00,
2013-07-24 15:49:00,78.8,64.7,29.89,WNW,292,2.3,2.3,62,0.00,CLR,,0.00,WeatherDisplay:10.37,2013-07-24 19:49:00,
2013-07-24 15:50:00,78.8,64.7,29.89,South,180,2.3,2.3,62,0.00,CLR,,0.00,WeatherDisplay:10.37,2013-07-24 19:50:00,
2013-07-24 15:51:00,78.8,64.7,29.89,South,180,2.3,2.3,62,0.00,CLR,,0.00,WeatherDisplay:10.37,2013-07-24 19:51:00,
2013-07-24 15:52:00,78.8,64.2,29.89,NNW,338,2.3,2.3,61,0.00,CLR,,0.00,WeatherDisplay:10.37,2013-07-24 19:52:00,
2013-07-24 15:53:00,79.0,64.8,29.89,West,270,2.3,2.3,62,0.00,CLR,,0.00,WeatherDisplay:10.37,2013-07-24 19:53:00,
2013-07-24 15:54:00,78.8,63.7,29.89,NW,315,2.3,2.3,60,0.00,CLR,,0.00,WeatherDisplay:10.37,2013-07-24 19:54:00,
2013-07-24 15:56:00,78.6,63.6,29.89,SE,135,2.3,2.3,60,0.00,CLR,,0.00,WeatherDisplay:10.37,2013-07-24 19:56:00,
2013-07-24 15:57:00,78.6,63.6,29.89,SE,135,2.3,2.3,60,0.00,CLR,,0.00,WeatherDisplay:10.37,2013-07-24 19:57:00,
2013-07-24 15:58:00,78.6,63.6,29.90,SSW,202,2.3,2.3,60,0.00,CLR,,0.00,WeatherDisplay:10.37,2013-07-24 19:58:00,
2013-07-24 16:00:00,78.6,64.0,29.89,NNW,338,2.3,2.3,61,0.00,CLR,,0.00,WeatherDisplay:10.37,2013-07-24 20:00:00,
2013-07-24 16:02:00,78.4,63.4,29.89,NNW,338,1.2,1.2,60,0.00,CLR,,0.00,WeatherDisplay:10.37,2013-07-24 20:02:00,
2013-07-24 16:03:00,78.4,63.9,29.89,NW,315,1.2,1.2,61,0.00,CLR,,0.00,WeatherDisplay:10.37,2013-07-24 20:03:00,
2013-07-24 16:05:00,78.3,64.2,29.89,NW,315,2.3,2.3,62,0.00,CLR,,0.00,WeatherDisplay:10.37,2013-07-24 20:05:00,
2013-07-24 16:07:00,78.4,64.3,29.89,NW,315,1.2,1.2,62,0.00,CLR,,0.00,WeatherDisplay:10.37,2013-07-24 20:07:00,
2013-07-24 16:08:00,78.6,64.5,29.89,ESE,112,1.2,2.4,62,0.00,CLR,,0.00,WeatherDisplay:10.37,2013-07-24 20:08:00,
2013-07-24 16:10:00,78.6,65.0,29.89,SSE,158,2.3,2.3,63,0.00,CLR,,0.00,WeatherDisplay:10.37,2013-07-24 20:10:00,
2013-07-24 16:12:00,78.6,65.0,29.89,SSE,158,2.3,2.3,63,0.00,CLR,,0.00,WeatherDisplay:10.37,2013-07-24 20:12:00,
2013-07-24 16:13:00,78.6,65.0,29.89,SSE,158,2.3,2.3,63,0.00,CLR,,0.00,WeatherDisplay:10.37,2013-07-24 20:13:00,
2013-07-24 16:14:00,78.8,63.7,29.89,South,180,2.3,2.4,60,0.00,CLR,,0.00,WeatherDisplay:10.37,2013-07-24 20:14:00,
2013-07-24 16:16:00,79.0,64.4,29.90,NW,315,2.3,2.3,61,0.00,CLR,,0.00,WeatherDisplay:10.37,2013-07-24 20:16:00,
2013-07-24 16:17:00,79.0,63.9,29.90,NW,315,2.3,2.3,60,0.00,CLR,,0.00,WeatherDisplay:10.37,2013-07-24 20:17:00,
2013-07-24 16:18:00,79.0,63.9,29.90,NW,315,2.3,2.3,60,0.00,CLR,,0.00,WeatherDisplay:10.37,2013-07-24 20:18:00,
2013-07-24 16:19:00,79.0,64.4,29.89,West,270,2.3,2.3,61,0.00,CLR,,0.00,WeatherDisplay:10.37,2013-07-24 20:19:00,
2013-07-24 16:22:00,79.2,63.6,29.90,NNW,338,3.5,3.5,59,0.00,CLR,,0.00,WeatherDisplay:10.37,2013-07-24 20:22:00,
2013-07-24 16:23:00,79.0,63.9,29.90,NW,315,2.3,2.3,60,0.00,CLR,,0.00,WeatherDisplay:10.37,2013-07-24 20:23:00,
2013-07-24 16:24:00,79.0,63.9,29.90,ESE,112,2.3,2.3,60,0.00,CLR,,0.00,WeatherDisplay:10.37,2013-07-24 20:24:00,
2013-07-24 16:27:00,79.0,63.4,29.90,WNW,292,2.3,2.3,59,0.00,CLR,,0.00,WeatherDisplay:10.37,2013-07-24 20:27:00,
2013-07-24 16:28:00,79.0,63.9,29.90,NW,315,2.3,2.3,60,0.00,CLR,,0.00,WeatherDisplay:10.37,2013-07-24 20:28:00,
2013-07-24 16:29:00,79.0,63.9,29.90,NW,315,1.2,1.2,60,0.00,CLR,,0.00,WeatherDisplay:10.37,2013-07-24 20:29:00,
2013-07-24 16:32:00,79.2,63.6,29.90,NW,315,2.3,2.3,59,0.00,CLR,,0.00,WeatherDisplay:10.37,2013-07-24 20:32:00,
2013-07-24 16:33:00,79.2,63.6,29.90,NNE,22,2.3,2.3,59,0.00,CLR,,0.00,WeatherDisplay:10.37,2013-07-24 20:33:00,
2013-07-24 16:34:00,79.0,63.4,29.90,NW,315,2.3,2.3,59,0.00,CLR,,0.00,WeatherDisplay:10.37,2013-07-24 20:34:00,
2013-07-24 16:37:00,79.3,63.8,29.90,WSW,248,2.3,2.3,59,0.00,CLR,,0.00,WeatherDisplay:10.37,2013-07-24 20:37:00,
2013-07-24 16:38:00,79.3,63.8,29.90,West,270,2.3,2.3,59,0.00,CLR,,0.00,WeatherDisplay:10.37,2013-07-24 20:38:00,
2013-07-24 16:39:00,79.3,63.8,29.90,West,270,2.3,2.3,59,0.00,CLR,,0.00,WeatherDisplay:10.37,2013-07-24 20:39:00,
2013-07-24 16:40:00,79.3,63.8,29.90,SW,225,2.3,2.3,59,0.00,CLR,,0.00,WeatherDisplay:10.37,2013-07-24 20:40:00,
2013-07-24 16:42:00,79.2,63.6,29.90,NNW,338,2.3,2.3,59,0.00,CLR,,0.00,WeatherDisplay:10.37,2013-07-24 20:42:00,
2013-07-24 16:44:00,79.2,63.1,29.90,NW,315,2.3,2.3,58,0.00,CLR,,0.00,WeatherDisplay:10.37,2013-07-24 20:44:00,
2013-07-24 16:45:00,79.2,63.6,29.90,WSW,248,2.3,2.3,59,0.00,CLR,,0.00,WeatherDisplay:10.37,2013-07-24 20:45:00,
2013-07-24 16:48:00,79.0,63.4,29.90,West,270,2.3,2.3,59,0.00,CLR,,0.00,WeatherDisplay:10.37,2013-07-24 20:48:00,
2013-07-24 16:49:00,79.0,62.9,29.90,WNW,292,2.3,2.3,58,0.00,CLR,,0.00,WeatherDisplay:10.37,2013-07-24 20:49:00,
2013-07-24 16:50:00,79.0,62.4,29.90,NNW,338,2.3,2.3,57,0.00,CLR,,0.00,WeatherDisplay:10.37,2013-07-24 20:50:00,
2013-07-24 16:53:00,79.0,62.9,29.91,NW,315,2.3,2.3,58,0.00,CLR,,0.00,WeatherDisplay:10.37,2013-07-24 20:53:00,
2013-07-24 16:54:00,79.0,62.9,29.91,NW,315,3.5,3.5,58,0.00,CLR,,0.00,WeatherDisplay:10.37,2013-07-24 20:54:00,
2013-07-24 16:55:00,79.0,62.9,29.91,NW,315,3.5,3.5,58,0.00,CLR,,0.00,WeatherDisplay:10.37,2013-07-24 20:55:00,
2013-07-24 16:58:00,79.0,62.9,29.91,NNW,338,2.3,2.3,58,0.00,CLR,,0.00,WeatherDisplay:10.37,2013-07-24 20:58:00,
2013-07-24 16:59:00,79.0,62.9,29.91,WNW,292,1.2,2.2,58,0.00,CLR,,0.00,WeatherDisplay:10.37,2013-07-24 20:59:00,
2013-07-24 17:00:00,79.0,62.9,29.91,WNW,292,2.3,2.3,58,0.00,CLR,,0.00,WeatherDisplay:10.37,2013-07-24 21:00:00,
2013-07-24 17:01:00,79.0,62.9,29.91,West,270,2.3,2.3,58,0.00,CLR,,0.00,WeatherDisplay:10.37,2013-07-24 21:01:00,
2013-07-24 17:03:00,79.0,62.9,29.91,NNW,338,3.5,3.5,58,0.00,CLR,,0.00,WeatherDisplay:10.37,2013-07-24 21:03:00,
2013-07-24 17:05:00,79.0,63.4,29.91,WNW,292,2.3,2.3,59,0.00,CLR,,0.00,WeatherDisplay:10.37,2013-07-24 21:05:00,
2013-07-24 17:06:00,79.0,63.4,29.91,WSW,248,2.3,2.6,59,0.00,CLR,,0.00,WeatherDisplay:10.37,2013-07-24 21:06:00,
2013-07-24 17:08:00,79.0,63.4,29.91,WSW,248,2.3,2.3,59,0.00,CLR,,0.00,WeatherDisplay:10.37,2013-07-24 21:08:00,
2013-07-24 17:10:00,79.0,63.5,29.91,WSW,255,2.0,3.0,59,0.00,CLR,CLR,0.00,WeatherDisplay:10.37,2013-07-24 21:10:00,
2013-07-24 17:11:00,79.2,63.1,29.91,SSW,202,2.3,2.3,58,0.00,CLR,,0.00,WeatherDisplay:10.37,2013-07-24 21:11:00,
2013-07-24 17:12:00,79.2,63.1,29.91,North,360,2.3,2.3,58,0.00,CLR,,0.00,WeatherDisplay:10.37,2013-07-24 21:12:00,
2013-07-24 17:13:00,79.2,63.1,29.91,North,360,2.3,2.3,58,0.00,CLR,,0.00,WeatherDisplay:10.37,2013-07-24 21:13:00,
2013-07-24 17:15:00,79.2,62.6,29.91,NNW,338,2.3,2.3,57,0.00,CLR,,0.00,WeatherDisplay:10.37,2013-07-24 21:15:00,
2013-07-24 17:17:00,79.0,63.4,29.91,NW,315,2.3,2.3,59,0.00,CLR,,0.00,WeatherDisplay:10.37,2013-07-24 21:17:00,
2013-07-24 17:18:00,79.2,63.6,29.91,SSW,202,2.3,2.3,59,0.00,CLR,,0.00,WeatherDisplay:10.37,2013-07-24 21:18:00,
2013-07-24 17:20:00,79.2,63.6,29.91,WNW,292,2.3,2.3,59,0.00,CLR,,0.00,WeatherDisplay:10.37,2013-07-24 21:20:00,
2013-07-24 17:22:00,79.2,63.1,29.91,South,180,2.3,2.4,58,0.00,CLR,,0.00,WeatherDisplay:10.37,2013-07-24 21:22:00,
2013-07-24 17:23:00,79.2,63.1,29.91,NNW,338,2.3,2.3,58,0.00,CLR,,0.00,WeatherDisplay:10.37,2013-07-24 21:23:00,
2013-07-24 17:24:00,79.2,63.1,29.91,ENE,68,2.3,2.3,58,0.00,CLR,,0.00,WeatherDisplay:10.37,2013-07-24 21:24:00,
2013-07-24 17:25:00,79.3,63.3,29.92,NW,315,2.3,2.3,58,0.00,CLR,,0.00,WeatherDisplay:10.37,2013-07-24 21:25:00,
2013-07-24 17:27:00,79.2,63.1,29.91,NW,315,2.3,2.3,58,0.00,CLR,,0.00,WeatherDisplay:10.37,2013-07-24 21:27:00,
2013-07-24 17:28:00,79.3,63.8,29.92,WNW,292,4.6,4.6,59,0.00,CLR,,0.00,WeatherDisplay:10.37,2013-07-24 21:28:00,
2013-07-24 17:29:00,79.2,62.6,29.92,WSW,248,4.6,4.6,57,0.00,CLR,,0.00,WeatherDisplay:10.37,2013-07-24 21:29:00,
2013-07-24 17:30:00,79.0,62.4,29.91,NE,45,4.6,4.6,57,0.00,CLR,,0.00,WeatherDisplay:10.37,2013-07-24 21:30:00,
2013-07-24 17:31:00,79.0,62.9,29.91,NW,315,1.2,1.2,58,0.00,CLR,,0.00,WeatherDisplay:10.37,2013-07-24 21:31:00,
2013-07-24 17:32:00,79.0,62.9,29.91,NW,315,1.2,1.2,58,0.00,CLR,,0.00,WeatherDisplay:10.37,2013-07-24 21:32:00,
2013-07-24 17:33:00,79.0,62.9,29.91,NW,315,1.2,1.2,58,0.00,CLR,,0.00,WeatherDisplay:10.37,2013-07-24 21:33:00,
2013-07-24 17:35:00,78.6,62.6,29.92,NW,315,1.2,1.2,58,0.00,CLR,,0.00,WeatherDisplay:10.37,2013-07-24 21:35:00,
2013-07-24 17:36:00,78.6,63.1,29.91,East,90,1.2,1.2,59,0.00,CLR,,0.00,WeatherDisplay:10.37,2013-07-24 21:36:00,
2013-07-24 17:38:00,78.6,63.1,29.91,South,180,1.2,1.8,59,0.00,CLR,,0.00,WeatherDisplay:10.37,2013-07-24 21:38:00,
2013-07-24 17:40:00,78.6,63.1,29.91,ENE,68,2.3,0.0,59,0.00,CLR,,0.00,WeatherDisplay:10.37,2013-07-24 21:40:00,
2013-07-24 17:42:00,78.4,62.9,29.91,NNW,338,2.3,2.3,59,0.00,CLR,,0.00,WeatherDisplay:10.37,2013-07-24 21:42:00,
2013-07-24 17:43:00,78.4,62.9,29.92,NW,315,2.3,2.3,59,0.00,CLR,,0.00,WeatherDisplay:10.37,2013-07-24 21:43:00,
2013-07-24 17:45:00,78.4,62.4,29.91,West,270,2.3,2.3,58,0.00,CLR,,0.00,WeatherDisplay:10.37,2013-07-24 21:45:00,
2013-07-24 17:46:00,78.3,62.3,29.91,WSW,248,2.3,2.3,58,0.00,CLR,,0.00,WeatherDisplay:10.37,2013-07-24 21:46:00,
2013-07-24 17:47:00,78.3,62.8,29.91,North,360,2.3,2.3,59,0.00,CLR,,0.00,WeatherDisplay:10.37,2013-07-24 21:47:00,
2013-07-24 17:49:00,78.3,62.8,29.91,WSW,248,1.2,1.2,59,0.00,CLR,,0.00,WeatherDisplay:10.37,2013-07-24 21:49:00,
2013-07-24 17:50:00,78.3,62.8,29.91,SW,225,4.6,4.9,59,0.00,CLR,,0.00,WeatherDisplay:10.37,2013-07-24 21:50:00,
2013-07-24 17:51:00,78.3,62.8,29.91,SW,225,4.6,4.9,59,0.00,CLR,,0.00,WeatherDisplay:10.37,2013-07-24 21:51:00,
2013-07-24 17:52:00,78.3,62.8,29.91,West,270,4.6,4.6,59,0.00,CLR,,0.00,WeatherDisplay:10.37,2013-07-24 21:52:00,
2013-07-24 17:54:00,78.3,62.8,29.91,WSW,248,4.6,4.6,59,0.00,CLR,,0.00,WeatherDisplay:10.37,2013-07-24 21:54:00,
2013-07-24 17:55:00,78.3,62.8,29.91,NW,315,1.2,1.2,59,0.00,CLR,,0.00,WeatherDisplay:10.37,2013-07-24 21:55:00,
2013-07-24 17:57:00,78.3,62.8,29.92,WSW,248,1.2,1.2,59,0.00,CLR,,0.00,WeatherDisplay:10.37,2013-07-24 21:57:00,
2013-07-24 17:59:00,78.1,62.1,29.92,NW,315,1.2,2.9,58,0.00,CLR,,0.00,WeatherDisplay:10.37,2013-07-24 21:59:00,
2013-07-24 18:01:00,78.1,62.6,29.92,East,90,2.3,2.3,59,0.00,CLR,,0.00,WeatherDisplay:10.37,2013-07-24 22:01:00,
2013-07-24 18:02:00,77.9,62.4,29.92,SSE,158,1.2,1.2,59,0.00,CLR,,0.00,WeatherDisplay:10.37,2013-07-24 22:02:00,
2013-07-24 18:03:00,77.9,62.4,29.92,SSE,158,1.2,1.2,59,0.00,CLR,,0.00,WeatherDisplay:10.37,2013-07-24 22:03:00,
2013-07-24 18:04:00,77.9,62.4,29.92,SSE,158,1.2,1.2,59,0.00,CLR,,0.00,WeatherDisplay:10.37,2013-07-24 22:04:00,
2013-07-24 18:06:00,77.9,62.4,29.92,SSE,158,1.2,1.2,59,0.00,CLR,,0.00,WeatherDisplay:10.37,2013-07-24 22:06:00,
2013-07-24 18:07:00,77.7,61.8,29.92,SSE,158,1.8,1.8,58,0.00,CLR,,0.00,WeatherDisplay:10.37,2013-07-24 22:07:00,
2013-07-24 18:08:00,77.7,61.8,29.92,West,270,2.3,2.3,58,0.00,CLR,,0.00,WeatherDisplay:10.37,2013-07-24 22:08:00,
2013-07-24 18:09:00,77.7,61.8,29.92,West,270,2.3,2.3,58,0.00,CLR,,0.00,WeatherDisplay:10.37,2013-07-24 22:09:00,
2013-07-24 18:12:00,77.5,62.6,29.92,South,180,1.2,1.2,60,0.00,CLR,,0.00,WeatherDisplay:10.37,2013-07-24 22:12:00,
2013-07-24 18:13:00,77.5,62.6,29.92,South,180,2.3,2.3,60,0.00,CLR,,0.00,WeatherDisplay:10.37,2013-07-24 22:13:00,
2013-07-24 18:14:00,77.5,62.6,29.92,South,180,2.3,2.3,60,0.00,CLR,,0.00,WeatherDisplay:10.37,2013-07-24 22:14:00,
2013-07-24 18:15:00,77.5,62.1,29.92,East,90,2.3,2.3,59,0.00,CLR,,0.00,WeatherDisplay:10.37,2013-07-24 22:15:00,
2013-07-24 18:17:00,77.5,62.6,29.92,NE,45,2.3,2.3,60,0.00,CLR,,0.00,WeatherDisplay:10.37,2013-07-24 22:17:00,
2013-07-24 18:18:00,77.4,61.9,29.93,NE,45,2.3,2.4,59,0.00,CLR,,0.00,WeatherDisplay:10.37,2013-07-24 22:18:00,
2013-07-24 18:19:00,77.4,62.4,29.93,WSW,248,2.3,2.3,60,0.00,CLR,,0.00,WeatherDisplay:10.37,2013-07-24 22:19:00,
2013-07-24 18:20:00,77.4,62.4,29.93,WSW,248,2.3,2.3,60,0.00,CLR,,0.00,WeatherDisplay:10.37,2013-07-24 22:20:00,
2013-07-24 18:22:00,77.4,61.9,29.93,North,360,1.2,1.2,59,0.00,CLR,,0.00,WeatherDisplay:10.37,2013-07-24 22:22:00,
2013-07-24 18:23:00,77.2,61.7,29.93,WNW,292,1.2,1.2,59,0.00,CLR,,0.00,WeatherDisplay:10.37,2013-07-24 22:23:00,
2013-07-24 18:24:00,77.2,61.7,29.93,West,270,1.2,1.8,59,0.00,CLR,,0.00,WeatherDisplay:10.37,2013-07-24 22:24:00,
2013-07-24 18:25:00,77.2,61.7,29.93,West,270,2.3,2.3,59,0.00,CLR,,0.00,WeatherDisplay:10.37,2013-07-24 22:25:00,
2013-07-24 18:27:00,76.8,60.9,29.93,NW,315,2.3,2.3,58,0.00,CLR,,0.00,WeatherDisplay:10.37,2013-07-24 22:27:00,
2013-07-24 18:28:00,76.8,61.4,29.93,WSW,248,2.3,2.3,59,0.00,CLR,,0.00,WeatherDisplay:10.37,2013-07-24 22:28:00,
2013-07-24 18:29:00,76.6,61.2,29.93,NW,315,1.2,1.2,59,0.00,CLR,,0.00,WeatherDisplay:10.37,2013-07-24 22:29:00,
2013-07-24 18:30:00,76.6,61.2,29.93,WSW,248,2.3,2.4,59,0.00,CLR,,0.00,WeatherDisplay:10.37,2013-07-24 22:30:00,
2013-07-24 18:32:00,76.5,60.6,29.94,North,360,2.3,2.3,58,0.00,CLR,,0.00,WeatherDisplay:10.37,2013-07-24 22:32:00,
2013-07-24 18:33:00,76.5,61.1,29.94,West,270,2.3,2.3,59,0.00,CLR,,0.00,WeatherDisplay:10.37,2013-07-24 22:33:00,
2013-07-24 18:34:00,76.5,61.1,29.94,West,270,2.3,2.3,59,0.00,CLR,,0.00,WeatherDisplay:10.37,2013-07-24 22:34:00,
2013-07-24 18:35:00,76.3,60.9,29.94,NNW,338,2.3,2.6,59,0.00,CLR,,0.00,WeatherDisplay:10.37,2013-07-24 22:35:00,
2013-07-24 18:37:00,76.3,60.9,29.95,NNW,338,2.3,2.3,59,0.00,CLR,,0.00,WeatherDisplay:10.37,2013-07-24 22:37:00,
2013-07-24 18:38:00,76.3,60.9,29.95,NNW,338,2.3,2.3,59,0.00,CLR,,0.00,WeatherDisplay:10.37,2013-07-24 22:38:00,
2013-07-24 18:39:00,76.3,60.9,29.95,NNW,338,1.2,1.2,59,0.00,CLR,,0.00,WeatherDisplay:10.37,2013-07-24 22:39:00,
2013-07-24 18:40:00,76.3,60.9,29.95,NNW,338,1.2,1.2,59,0.00,CLR,,0.00,WeatherDisplay:10.37,2013-07-24 22:40:00,
2013-07-24 18:42:00,76.1,60.7,29.95,ESE,112,1.2,1.2,59,0.00,CLR,,0.00,WeatherDisplay:10.37,2013-07-24 22:42:00,
2013-07-24 18:43:00,76.1,60.7,29.95,ESE,112,1.2,1.2,59,0.00,CLR,,0.00,WeatherDisplay:10.37,2013-07-24 22:43:00,
2013-07-24 18:45:00,76.1,61.2,29.95,SSW,202,0.0,0.5,60,0.00,CLR,,0.00,WeatherDisplay:10.37,2013-07-24 22:45:00,
2013-07-24 18:46:00,76.1,60.7,29.95,SW,225,0.0,0.7,59,0.00,CLR,,0.00,WeatherDisplay:10.37,2013-07-24 22:46:00,
2013-07-24 18:47:00,76.1,60.7,29.95,SW,225,1.2,1.2,59,0.00,CLR,,0.00,WeatherDisplay:10.37,2013-07-24 22:47:00,
2013-07-24 18:48:00,76.1,60.7,29.95,SW,225,1.2,1.2,59,0.00,CLR,,0.00,WeatherDisplay:10.37,2013-07-24 22:48:00,
2013-07-24 18:50:00,76.1,61.2,29.95,SSE,158,1.2,1.2,60,0.00,CLR,,0.00,WeatherDisplay:10.37,2013-07-24 22:50:00,
2013-07-24 18:51:00,76.1,61.2,29.95,SSE,158,1.2,1.2,60,0.00,CLR,,0.00,WeatherDisplay:10.37,2013-07-24 22:51:00,
2013-07-24 18:52:00,76.1,61.2,29.95,SSE,158,1.2,1.2,60,0.00,CLR,,0.00,WeatherDisplay:10.37,2013-07-24 22:52:00,
2013-07-24 18:53:00,76.1,60.7,29.95,SE,135,1.2,1.2,59,0.00,CLR,,0.00,WeatherDisplay:10.37,2013-07-24 22:53:00,
2013-07-24 18:55:00,76.1,60.7,29.95,WNW,292,2.3,2.3,59,0.00,CLR,,0.00,WeatherDisplay:10.37,2013-07-24 22:55:00,
2013-07-24 18:56:00,75.9,60.6,29.95,West,270,2.3,2.3,59,0.00,CLR,,0.00,WeatherDisplay:10.37,2013-07-24 22:56:00,
2013-07-24 18:57:00,75.9,60.1,29.95,West,270,2.3,2.3,58,0.00,CLR,,0.00,WeatherDisplay:10.37,2013-07-24 22:57:00,
2013-07-24 18:59:00,75.9,60.1,29.95,West,270,2.3,2.3,58,0.00,CLR,,0.00,WeatherDisplay:10.37,2013-07-24 22:59:00,
2013-07-24 19:00:00,75.9,60.1,29.94,West,270,2.3,2.3,58,0.00,CLR,,0.00,WeatherDisplay:10.37,2013-07-24 23:00:00,
2013-07-24 19:01:00,75.9,60.6,29.95,WNW,292,2.3,2.3,59,0.00,CLR,,0.00,WeatherDisplay:10.37,2013-07-24 23:01:00,
2013-07-24 19:02:00,75.7,60.4,29.94,NNW,338,2.3,2.3,59,0.00,CLR,,0.00,WeatherDisplay:10.37,2013-07-24 23:02:00,
2013-07-24 19:04:00,75.7,59.9,29.94,NW,315,2.3,2.3,58,0.00,CLR,,0.00,WeatherDisplay:10.37,2013-07-24 23:04:00,
2013-07-24 19:05:00,75.7,60.4,29.94,NNE,22,2.3,2.3,59,0.00,CLR,,0.00,WeatherDisplay:10.37,2013-07-24 23:05:00,
2013-07-24 19:06:00,75.7,60.4,29.94,NNE,22,2.3,2.3,59,0.00,CLR,,0.00,WeatherDisplay:10.37,2013-07-24 23:06:00,
2013-07-24 19:08:00,75.6,59.7,29.94,South,180,1.2,2.9,58,0.00,CLR,,0.00,WeatherDisplay:10.37,2013-07-24 23:08:00,
2013-07-24 19:09:00,75.4,59.6,29.94,NW,315,2.3,2.3,58,0.00,CLR,,0.00,WeatherDisplay:10.37,2013-07-24 23:09:00,
2013-07-24 19:10:00,75.4,59.6,29.93,NW,315,2.3,2.3,58,0.00,CLR,,0.00,WeatherDisplay:10.37,2013-07-24 23:10:00,
2013-07-24 19:12:00,75.4,59.1,29.94,SE,135,0.0,1.2,57,0.00,CLR,,0.00,WeatherDisplay:10.37,2013-07-24 23:12:00,
2013-07-24 19:13:00,75.4,59.1,29.94,WNW,292,1.2,1.2,57,0.00,CLR,,0.00,WeatherDisplay:10.37,2013-07-24 23:13:00,
2013-07-24 19:14:00,75.2,59.4,29.94,SSW,202,1.2,2.0,58,0.00,CLR,,0.00,WeatherDisplay:10.37,2013-07-24 23:14:00,
2013-07-24 19:15:00,75.0,59.2,29.94,NW,315,2.3,2.3,58,0.00,CLR,,0.00,WeatherDisplay:10.37,2013-07-24 23:15:00,
2013-07-24 19:17:00,74.8,59.1,29.94,NW,315,2.3,2.4,58,0.00,CLR,,0.00,WeatherDisplay:10.37,2013-07-24 23:17:00,
2013-07-24 19:18:00,74.7,59.4,29.93,SSW,202,2.3,2.3,59,0.00,CLR,,0.00,WeatherDisplay:10.37,2013-07-24 23:18:00,
2013-07-24 19:20:00,74.7,59.4,29.93,North,360,2.3,2.3,59,0.00,CLR,,0.00,WeatherDisplay:10.37,2013-07-24 23:20:00,
2013-07-24 19:22:00,74.5,59.2,29.94,ENE,68,1.8,1.8,59,0.00,CLR,,0.00,WeatherDisplay:10.37,2013-07-24 23:22:00,
2013-07-24 19:23:00,74.5,59.2,29.93,ENE,68,2.3,2.3,59,0.00,CLR,,0.00,WeatherDisplay:10.37,2013-07-24 23:23:00,
2013-07-24 19:25:00,74.3,58.6,29.93,NNW,338,2.3,2.3,58,0.00,CLR,,0.00,WeatherDisplay:10.37,2013-07-24 23:25:00,
2013-07-24 19:26:00,74.3,58.6,29.94,WNW,292,2.3,2.3,58,0.00,CLR,,0.00,WeatherDisplay:10.37,2013-07-24 23:26:00,
2013-07-24 19:27:00,74.3,58.6,29.93,WNW,292,1.2,3.1,58,0.00,CLR,,0.00,WeatherDisplay:10.37,2013-07-24 23:27:00,
2013-07-24 19:28:00,74.3,58.6,29.93,WNW,292,1.2,3.1,58,0.00,CLR,,0.00,WeatherDisplay:10.37,2013-07-24 23:28:00,
2013-07-24 19:29:00,74.3,58.6,29.94,NW,315,3.5,3.5,58,0.00,CLR,,0.00,WeatherDisplay:10.37,2013-07-24 23:29:00,
2013-07-24 19:30:00,74.3,58.6,29.93,WSW,248,3.5,3.5,58,0.00,CLR,,0.00,WeatherDisplay:10.37,2013-07-24 23:30:00,
2013-07-24 19:31:00,74.1,58.4,29.93,South,180,3.5,3.5,58,0.00,CLR,,0.00,WeatherDisplay:10.37,2013-07-24 23:31:00,
2013-07-24 19:32:00,73.9,58.2,29.93,NE,45,1.2,1.2,58,0.00,CLR,,0.00,WeatherDisplay:10.37,2013-07-24 23:32:00,
2013-07-24 19:33:00,73.9,58.2,29.93,NE,45,1.2,1.2,58,0.00,CLR,,0.00,WeatherDisplay:10.37,2013-07-24 23:33:00,
2013-07-24 19:34:00,73.9,58.2,29.93,NNE,22,1.2,1.6,58,0.00,CLR,,0.00,WeatherDisplay:10.37,2013-07-24 23:34:00,
2013-07-24 19:35:00,73.8,58.1,29.93,WSW,248,1.2,1.6,58,0.00,CLR,,0.00,WeatherDisplay:10.37,2013-07-24 23:35:00,
2013-07-24 19:36:00,73.8,58.1,29.93,WSW,248,1.2,1.6,58,0.00,CLR,,0.00,WeatherDisplay:10.37,2013-07-24 23:36:00,
2013-07-24 19:38:00,73.6,57.9,29.93,NNE,22,1.2,2.4,58,0.00,CLR,,0.00,WeatherDisplay:10.37,2013-07-24 23:38:00,
2013-07-24 19:39:00,73.6,57.9,29.93,NNE,22,2.3,2.4,58,0.00,CLR,,0.00,WeatherDisplay:10.37,2013-07-24 23:39:00,
2013-07-24 19:41:00,73.6,58.4,29.94,NW,315,2.3,2.3,59,0.00,CLR,,0.00,WeatherDisplay:10.37,2013-07-24 23:41:00,
2013-07-24 19:43:00,73.4,58.2,29.94,NW,315,2.3,2.3,59,0.00,CLR,,0.00,WeatherDisplay:10.37,2013-07-24 23:43:00,
2013-07-24 19:44:00,73.2,57.6,29.93,NW,315,5.8,5.8,58,0.00,CLR,,0.00,WeatherDisplay:10.37,2013-07-24 23:44:00,
2013-07-24 19:47:00,73.2,58.0,29.94,South,180,5.8,5.8,59,0.00,CLR,,0.00,WeatherDisplay:10.37,2013-07-24 23:47:00,
2013-07-24 19:48:00,73.0,57.4,29.94,WSW,248,3.5,3.6,58,0.00,CLR,,0.00,WeatherDisplay:10.37,2013-07-24 23:48:00,
2013-07-24 19:49:00,72.9,57.7,29.94,NE,45,3.5,3.5,59,0.00,CLR,,0.00,WeatherDisplay:10.37,2013-07-24 23:49:00,
2013-07-24 19:52:00,72.9,57.7,29.94,West,270,1.2,1.2,59,0.00,CLR,,0.00,WeatherDisplay:10.37,2013-07-24 23:52:00,
2013-07-24 19:53:00,72.9,57.7,29.94,West,270,1.2,1.2,59,0.00,CLR,,0.00,WeatherDisplay:10.37,2013-07-24 23:53:00,
2013-07-24 19:54:00,72.9,57.7,29.94,WNW,292,1.2,1.2,59,0.00,CLR,,0.00,WeatherDisplay:10.37,2013-07-24 23:54:00,
2013-07-24 19:55:00,72.7,57.5,29.94,ENE,68,2.3,2.3,59,0.00,CLR,,0.00,WeatherDisplay:10.37,2013-07-24 23:55:00,
2013-07-24 19:57:00,72.7,57.5,29.94,ESE,112,2.3,2.3,59,0.00,CLR,,0.00,WeatherDisplay:10.37,2013-07-24 23:57:00,
2013-07-24 19:59:00,72.7,57.5,29.94,ESE,112,1.2,1.2,59,0.00,CLR,,0.00,WeatherDisplay:10.37,2013-07-24 23:59:00,
2013-07-24 20:00:00,72.5,57.8,29.94,SW,225,1.2,1.2,60,0.00,CLR,,0.00,WeatherDisplay:10.37,2013-07-25 00:00:00,
2013-07-24 20:02:00,72.5,57.8,29.94,SSE,158,0.0,0.5,60,0.00,CLR,,0.00,WeatherDisplay:10.37,2013-07-25 00:02:00,
2013-07-24 20:04:00,72.5,57.8,29.94,NW,315,2.3,2.4,60,0.00,CLR,,0.00,WeatherDisplay:10.37,2013-07-25 00:04:00,
2013-07-24 20:06:00,72.3,57.7,29.94,NW,315,2.3,2.3,60,0.00,CLR,,0.00,WeatherDisplay:10.37,2013-07-25 00:06:00,
2013-07-24 20:07:00,72.1,57.5,29.94,WNW,292,1.2,1.2,60,0.00,CLR,,0.00,WeatherDisplay:10.37,2013-07-25 00:07:00,
2013-07-24 20:09:00,72.1,57.5,29.95,ESE,112,1.2,1.2,60,0.00,CLR,,0.00,WeatherDisplay:10.37,2013-07-25 00:09:00,
2013-07-24 20:12:00,72.1,57.9,29.95,NNW,338,1.2,0.0,61,0.00,CLR,,0.00,WeatherDisplay:10.37,2013-07-25 00:12:00,
2013-07-24 20:13:00,72.1,57.9,29.96,NW,315,1.2,1.2,61,0.00,CLR,,0.00,WeatherDisplay:10.37,2013-07-25 00:13:00,
2013-07-24 20:14:00,72.0,57.8,29.96,NNW,338,1.2,1.2,61,0.00,CLR,,0.00,WeatherDisplay:10.37,2013-07-25 00:14:00,
2013-07-24 20:17:00,71.8,57.6,29.96,NNW,338,1.2,1.8,61,0.00,CLR,,0.00,WeatherDisplay:10.37,2013-07-25 00:17:00,
2013-07-24 20:18:00,71.8,57.6,29.96,NNW,338,2.3,2.3,61,0.00,CLR,,0.00,WeatherDisplay:10.37,2013-07-25 00:18:00,
2013-07-24 20:19:00,71.6,57.4,29.96,WSW,248,2.3,2.3,61,0.00,CLR,,0.00,WeatherDisplay:10.37,2013-07-25 00:19:00,
2013-07-24 20:23:00,71.4,57.3,29.97,West,270,0.0,0.0,61,0.00,CLR,,0.00,WeatherDisplay:10.37,2013-07-25 00:23:00,
2013-07-24 20:24:00,71.4,57.3,29.97,South,180,0.0,0.5,61,0.00,CLR,,0.00,WeatherDisplay:10.37,2013-07-25 00:24:00,
2013-07-24 20:28:00,71.4,57.7,29.98,ESE,112,0.0,0.5,62,0.00,CLR,,0.00,WeatherDisplay:10.37,2013-07-25 00:28:00,
2013-07-24 20:29:00,71.1,57.4,29.98,NNE,22,0.7,0.7,62,0.00,CLR,,0.00,WeatherDisplay:10.37,2013-07-25 00:29:00,
2013-07-24 20:30:00,71.1,57.4,29.98,NNE,22,0.0,0.7,62,0.00,CLR,,0.00,WeatherDisplay:10.37,2013-07-25 00:30:00,
2013-07-24 20:33:00,71.1,57.4,29.97,North,360,1.2,1.4,62,0.00,CLR,,0.00,WeatherDisplay:10.37,2013-07-25 00:33:00,
2013-07-24 20:34:00,70.7,57.0,29.98,SSE,158,3.5,3.5,62,0.00,CLR,,0.00,WeatherDisplay:10.37,2013-07-25 00:34:00,
2013-07-24 20:35:00,70.7,57.0,29.98,SSE,158,3.5,3.5,62,0.00,CLR,,0.00,WeatherDisplay:10.37,2013-07-25 00:35:00,
2013-07-24 20:38:00,70.5,56.9,29.97,NNW,338,1.2,0.0,62,0.00,CLR,,0.00,WeatherDisplay:10.37,2013-07-25 00:38:00,
2013-07-24 20:39:00,70.5,56.9,29.97,NNW,338,1.2,0.0,62,0.00,CLR,,0.00,WeatherDisplay:10.37,2013-07-25 00:39:00,
2013-07-24 20:40:00,70.5,57.3,29.98,NNW,338,0.0,0.0,63,0.00,CLR,,0.00,WeatherDisplay:10.37,2013-07-25 00:40:00,
2013-07-24 20:41:00,70.5,57.3,29.97,East,90,0.0,0.5,63,0.00,CLR,,0.00,WeatherDisplay:10.37,2013-07-25 00:41:00,
2013-07-24 20:43:00,70.3,57.1,29.97,SSE,158,0.0,0.2,63,0.00,CLR,,0.00,WeatherDisplay:10.37,2013-07-25 00:43:00,
2013-07-24 20:44:00,70.3,57.1,29.97,SSE,158,0.0,0.2,63,0.00,CLR,,0.00,WeatherDisplay:10.37,2013-07-25 00:44:00,
2013-07-24 20:45:00,70.3,57.1,29.97,South,180,0.0,0.2,63,0.00,CLR,,0.00,WeatherDisplay:10.37,2013-07-25 00:45:00,
2013-07-24 20:47:00,70.3,57.1,29.98,ESE,112,0.0,0.5,63,0.00,CLR,,0.00,WeatherDisplay:10.37,2013-07-25 00:47:00,
2013-07-24 20:48:00,70.2,57.0,29.98,WSW,248,0.0,1.6,63,0.00,CLR,,0.00,WeatherDisplay:10.37,2013-07-25 00:48:00,
2013-07-24 20:49:00,70.2,57.0,29.99,WSW,248,1.6,1.6,63,0.00,CLR,,0.00,WeatherDisplay:10.37,2013-07-25 00:49:00,
2013-07-24 20:50:00,70.2,57.0,29.99,WSW,248,1.2,1.6,63,0.00,CLR,,0.00,WeatherDisplay:10.37,2013-07-25 00:50:00,
2013-07-24 20:52:00,70.0,56.8,29.99,West,270,1.2,0.0,63,0.00,CLR,,0.00,WeatherDisplay:10.37,2013-07-25 00:52:00,
2013-07-24 20:54:00,70.0,56.8,29.99,NW,315,0.0,0.7,63,0.00,CLR,,0.00,WeatherDisplay:10.37,2013-07-25 00:54:00,
2013-07-24 20:55:00,70.0,56.8,29.99,North,360,1.2,1.4,63,0.00,CLR,,0.00,WeatherDisplay:10.37,2013-07-25 00:55:00,
2013-07-24 20:57:00,70.0,56.8,29.99,NW,315,1.2,1.2,63,0.00,CLR,,0.00,WeatherDisplay:10.37,2013-07-25 00:57:00,
2013-07-24 20:59:00,70.0,56.8,30.00,NNW,338,0.0,0.5,63,0.00,CLR,,0.00,WeatherDisplay:10.37,2013-07-25 00:59:00,
2013-07-24 21:01:00,70.0,56.8,29.99,NNE,22,0.0,0.2,63,0.00,CLR,,0.00,WeatherDisplay:10.37,2013-07-25 01:01:00,
2013-07-24 21:02:00,69.8,56.6,30.00,ESE,112,0.0,0.5,63,0.00,CLR,,0.00,WeatherDisplay:10.37,2013-07-25 01:02:00,
2013-07-24 21:04:00,69.8,56.6,30.00,WNW,292,1.2,1.2,63,0.00,CLR,,0.00,WeatherDisplay:10.37,2013-07-25 01:04:00,
2013-07-24 21:05:00,69.8,56.6,30.00,WNW,292,1.2,1.2,63,0.00,CLR,,0.00,WeatherDisplay:10.37,2013-07-25 01:05:00,
2013-07-24 21:06:00,69.6,56.0,29.99,WNW,292,1.2,0.0,62,0.00,CLR,,0.00,WeatherDisplay:10.37,2013-07-25 01:06:00,
2013-07-24 21:07:00,69.6,56.5,30.00,South,180,1.2,1.2,63,0.00,CLR,,0.00,WeatherDisplay:10.37,2013-07-25 01:07:00,
2013-07-24 21:08:00,69.6,56.5,30.00,South,180,1.2,1.2,63,0.00,CLR,,0.00,WeatherDisplay:10.37,2013-07-25 01:08:00,
2013-07-24 21:09:00,69.6,56.5,29.99,SW,225,1.2,1.8,63,0.00,CLR,,0.00,WeatherDisplay:10.37,2013-07-25 01:09:00,
2013-07-24 21:10:00,69.6,56.5,30.00,WSW,248,2.3,2.3,63,0.00,CLR,,0.00,WeatherDisplay:10.37,2013-07-25 01:10:00,
2013-07-24 21:12:00,69.4,55.9,30.00,West,270,2.3,2.3,62,0.00,CLR,,0.00,WeatherDisplay:10.37,2013-07-25 01:12:00,
2013-07-24 21:13:00,69.4,55.9,30.00,WNW,292,2.3,2.3,62,0.00,CLR,,0.00,WeatherDisplay:10.37,2013-07-25 01:13:00,
2013-07-24 21:15:00,69.3,55.7,30.00,West,270,2.3,2.3,62,0.00,CLR,,0.00,WeatherDisplay:10.37,2013-07-25 01:15:00,
2013-07-24 21:17:00,69.3,55.7,30.00,North,360,2.3,2.3,62,0.00,CLR,,0.00,WeatherDisplay:10.37,2013-07-25 01:17:00,
2013-07-24 21:18:00,69.3,55.7,30.00,North,360,2.3,2.3,62,0.00,CLR,,0.00,WeatherDisplay:10.37,2013-07-25 01:18:00,
2013-07-24 21:20:00,69.1,56.0,30.00,West,270,1.2,1.2,63,0.00,CLR,,0.00,WeatherDisplay:10.37,2013-07-25 01:20:00,
2013-07-24 21:21:00,69.1,56.0,30.00,West,270,1.2,1.2,63,0.00,CLR,,0.00,WeatherDisplay:10.37,2013-07-25 01:21:00,
2013-07-24 21:23:00,68.9,55.8,30.00,West,270,1.2,1.2,63,0.00,CLR,,0.00,WeatherDisplay:10.37,2013-07-25 01:23:00,
2013-07-24 21:25:00,68.9,55.8,30.00,West,270,2.3,2.3,63,0.00,CLR,,0.00,WeatherDisplay:10.37,2013-07-25 01:25:00,
2013-07-24 21:26:00,68.9,55.8,30.00,West,270,2.3,2.3,63,0.00,CLR,,0.00,WeatherDisplay:10.37,2013-07-25 01:26:00,
2013-07-24 21:28:00,68.9,55.8,30.00,NE,45,2.3,2.3,63,0.00,CLR,,0.00,WeatherDisplay:10.37,2013-07-25 01:28:00,
2013-07-24 21:31:00,68.7,56.0,30.01,NNE,22,1.2,1.2,64,0.00,CLR,,0.00,WeatherDisplay:10.37,2013-07-25 01:31:00,
2013-07-24 21:32:00,68.7,56.0,30.02,NNW,338,1.2,1.2,64,0.00,CLR,,0.00,WeatherDisplay:10.37,2013-07-25 01:32:00,
2013-07-24 21:33:00,68.7,56.0,30.02,NNW,338,0.0,0.5,64,0.00,CLR,,0.00,WeatherDisplay:10.37,2013-07-25 01:33:00,
2013-07-24 21:37:00,68.5,55.9,30.01,WSW,248,1.2,1.6,64,0.00,CLR,,0.00,WeatherDisplay:10.37,2013-07-25 01:37:00,
2013-07-24 21:38:00,68.5,55.9,30.02,NNW,338,1.2,1.2,64,0.00,CLR,,0.00,WeatherDisplay:10.37,2013-07-25 01:38:00,
2013-07-24 21:43:00,68.7,56.5,30.02,WNW,292,2.3,4.7,65,0.00,CLR,,0.00,WeatherDisplay:10.37,2013-07-25 01:43:00,
2013-07-24 21:44:00,68.5,55.9,30.01,NW,315,4.6,0.0,64,0.00,CLR,,0.00,WeatherDisplay:10.37,2013-07-25 01:44:00,
2013-07-24 21:48:00,68.5,55.9,30.01,West,270,1.2,1.2,64,0.00,CLR,,0.00,WeatherDisplay:10.37,2013-07-25 01:48:00,
2013-07-24 21:49:00,68.5,55.9,30.01,West,270,1.2,1.2,64,0.00,CLR,,0.00,WeatherDisplay:10.37,2013-07-25 01:49:00,
2013-07-24 21:53:00,68.2,56.0,30.01,SE,135,1.2,1.2,65,0.00,CLR,,0.00,WeatherDisplay:10.37,2013-07-25 01:53:00,
2013-07-24 21:54:00,68.2,56.0,30.01,WNW,292,1.2,1.2,65,0.00,CLR,,0.00,WeatherDisplay:10.37,2013-07-25 01:54:00,
2013-07-24 21:58:00,68.2,56.0,30.02,WNW,292,1.2,1.2,65,0.00,CLR,,0.00,WeatherDisplay:10.37,2013-07-25 01:58:00,
2013-07-24 21:59:00,68.2,56.0,30.02,WNW,292,1.2,1.2,65,0.00,CLR,,0.00,WeatherDisplay:10.37,2013-07-25 01:59:00,
2013-07-24 22:03:00,68.0,55.8,30.01,NW,315,1.2,1.2,65,0.00,CLR,,0.00,WeatherDisplay:10.37,2013-07-25 02:03:00,
2013-07-24 22:04:00,68.0,55.8,30.01,NW,315,1.2,1.2,65,0.00,CLR,,0.00,WeatherDisplay:10.37,2013-07-25 02:04:00,
2013-07-24 22:05:00,68.0,55.8,30.02,WNW,292,1.2,1.2,65,0.00,CLR,,0.00,WeatherDisplay:10.37,2013-07-25 02:05:00,
2013-07-24 22:09:00,67.6,55.5,30.01,SW,225,2.3,2.3,65,0.00,CLR,,0.00,WeatherDisplay:10.37,2013-07-25 02:09:00,
2013-07-24 22:10:00,67.6,55.5,30.01,SW,225,1.2,1.2,65,0.00,CLR,,0.00,WeatherDisplay:10.37,2013-07-25 02:10:00,
2013-07-24 22:14:00,67.5,55.3,30.01,West,270,1.2,1.2,65,0.00,CLR,,0.00,WeatherDisplay:10.37,2013-07-25 02:14:00,
2013-07-24 22:15:00,67.3,55.1,30.02,WSW,248,1.2,1.2,65,0.00,CLR,,0.00,WeatherDisplay:10.37,2013-07-25 02:15:00,
2013-07-24 22:16:00,67.3,55.1,30.01,WSW,248,1.2,1.2,65,0.00,CLR,,0.00,WeatherDisplay:10.37,2013-07-25 02:16:00,
2013-07-24 22:19:00,67.1,54.9,30.01,WSW,248,1.2,1.2,65,0.00,CLR,,0.00,WeatherDisplay:10.37,2013-07-25 02:19:00,
2013-07-24 22:21:00,67.1,54.9,30.01,West,270,1.2,1.2,65,0.00,CLR,,0.00,WeatherDisplay:10.37,2013-07-25 02:21:00,
2013-07-24 22:24:00,66.7,55.0,30.00,SSW,202,1.2,1.2,66,0.00,CLR,,0.00,WeatherDisplay:10.37,2013-07-25 02:24:00,
2013-07-24 22:25:00,66.7,55.0,30.00,SSW,202,1.2,1.2,66,0.00,CLR,,0.00,WeatherDisplay:10.37,2013-07-25 02:25:00,
2013-07-24 22:26:00,66.7,55.0,30.00,WNW,292,1.2,1.6,66,0.00,CLR,,0.00,WeatherDisplay:10.37,2013-07-25 02:26:00,
2013-07-24 22:27:00,66.7,55.0,30.00,WNW,292,1.2,1.6,66,0.00,CLR,,0.00,WeatherDisplay:10.37,2013-07-25 02:27:00,
2013-07-24 22:30:00,66.7,55.0,30.00,WNW,283,1.0,2.0,66,0.00,CLR,CLR,0.00,WeatherDisplay:10.37,2013-07-25 02:30:00,
2013-07-24 22:32:00,66.6,54.8,30.00,West,270,1.2,0.0,66,0.00,CLR,,0.00,WeatherDisplay:10.37,2013-07-25 02:32:00,
2013-07-24 22:35:00,66.4,54.7,30.01,NNW,338,1.2,1.2,66,0.00,CLR,,0.00,WeatherDisplay:10.37,2013-07-25 02:35:00,
2013-07-24 22:36:00,66.4,54.7,30.01,NW,315,2.3,2.3,66,0.00,CLR,,0.00,WeatherDisplay:10.37,2013-07-25 02:36:00,
2013-07-24 22:38:00,66.4,54.7,30.01,East,90,2.3,2.3,66,0.00,CLR,,0.00,WeatherDisplay:10.37,2013-07-25 02:38:00,
2013-07-24 22:40:00,66.4,54.7,30.01,East,90,1.2,1.2,66,0.00,CLR,,0.00,WeatherDisplay:10.37,2013-07-25 02:40:00,
2013-07-24 22:42:00,66.4,54.7,30.01,South,180,1.2,1.2,66,0.00,CLR,,0.00,WeatherDisplay:10.37,2013-07-25 02:42:00,
2013-07-24 22:43:00,66.4,54.7,30.01,NE,45,1.2,1.4,66,0.00,CLR,,0.00,WeatherDisplay:10.37,2013-07-25 02:43:00,
2013-07-24 22:45:00,66.2,54.5,30.00,ENE,68,2.3,2.3,66,0.00,CLR,,0.00,WeatherDisplay:10.37,2013-07-25 02:45:00,
2013-07-24 22:47:00,66.2,54.5,30.01,East,90,2.3,2.3,66,0.00,CLR,,0.00,WeatherDisplay:10.37,2013-07-25 02:47:00,
2013-07-24 22:48:00,66.0,54.3,30.00,WSW,248,2.3,2.3,66,0.00,CLR,,0.00,WeatherDisplay:10.37,2013-07-25 02:48:00,
2013-07-24 22:51:00,66.0,54.3,30.01,East,90,1.2,1.6,66,0.00,CLR,,0.00,WeatherDisplay:10.37,2013-07-25 02:51:00,
2013-07-24 22:52:00,66.0,54.3,30.01,South,180,1.2,1.2,66,0.00,CLR,,0.00,WeatherDisplay:10.37,2013-07-25 02:52:00,
2013-07-24 22:53:00,65.8,54.2,30.00,SSE,158,1.2,1.4,66,0.00,CLR,,0.00,WeatherDisplay:10.37,2013-07-25 02:53:00,
2013-07-24 22:56:00,65.8,54.6,30.01,WNW,292,1.2,1.2,67,0.00,CLR,,0.00,WeatherDisplay:10.37,2013-07-25 02:56:00,
2013-07-24 22:57:00,65.8,54.6,30.00,WNW,292,0.5,0.5,67,0.00,CLR,,0.00,WeatherDisplay:10.37,2013-07-25 02:57:00,
2013-07-24 22:58:00,65.8,54.6,30.00,WNW,292,0.0,0.5,67,0.00,CLR,,0.00,WeatherDisplay:10.37,2013-07-25 02:58:00,
2013-07-24 22:59:00,65.7,54.4,30.00,NNE,22,0.0,1.4,67,0.00,CLR,,0.00,WeatherDisplay:10.37,2013-07-25 02:59:00,
2013-07-24 23:01:00,65.7,54.4,30.00,NNW,338,1.2,1.2,67,0.00,CLR,,0.00,WeatherDisplay:10.37,2013-07-25 03:01:00,
2013-07-24 23:02:00,65.7,54.4,30.01,WNW,292,1.2,1.2,67,0.00,CLR,,0.00,WeatherDisplay:10.37,2013-07-25 03:02:00,
2013-07-24 23:03:00,65.7,54.4,30.01,WNW,292,1.2,1.2,67,0.00,CLR,,0.00,WeatherDisplay:10.37,2013-07-25 03:03:00,
2013-07-24 23:04:00,65.7,54.4,30.01,WNW,292,1.2,1.8,67,0.00,CLR,,0.00,WeatherDisplay:10.37,2013-07-25 03:04:00,
2013-07-24 23:06:00,65.5,54.2,30.01,NNW,338,2.3,2.3,67,0.00,CLR,,0.00,WeatherDisplay:10.37,2013-07-25 03:06:00,
2013-07-24 23:08:00,65.5,54.2,30.00,NW,315,2.3,0.0,67,0.00,CLR,,0.00,WeatherDisplay:10.37,2013-07-25 03:08:00,
2013-07-24 23:10:00,65.3,54.1,30.01,WNW,298,0.0,2.0,67,0.00,CLR,CLR,0.00,WeatherDisplay:10.37,2013-07-25 03:10:00,
2013-07-24 23:12:00,65.3,54.1,30.01,NW,315,1.2,1.2,67,0.00,CLR,,0.00,WeatherDisplay:10.37,2013-07-25 03:12:00,
2013-07-24 23:13:00,65.3,54.1,30.01,NW,315,1.2,1.2,67,0.00,CLR,,0.00,WeatherDisplay:10.37,2013-07-25 03:13:00,
2013-07-24 23:15:00,65.1,53.9,30.01,NE,45,1.2,1.2,67,0.00,CLR,,0.00,WeatherDisplay:10.37,2013-07-25 03:15:00,
2013-07-24 23:16:00,65.1,53.9,30.01,NE,45,1.2,1.2,67,0.00,CLR,,0.00,WeatherDisplay:10.37,2013-07-25 03:16:00,
2013-07-24 23:17:00,65.1,53.9,30.01,NE,45,0.0,0.5,67,0.00,CLR,,0.00,WeatherDisplay:10.37,2013-07-25 03:17:00,
2013-07-24 23:18:00,65.1,53.9,30.00,WSW,248,0.0,0.5,67,0.00,CLR,,0.00,WeatherDisplay:10.37,2013-07-25 03:18:00,
2013-07-24 23:21:00,65.1,53.9,30.00,NNW,338,1.2,1.2,67,0.00,CLR,,0.00,WeatherDisplay:10.37,2013-07-25 03:21:00,
2013-07-24 23:22:00,65.1,53.9,30.01,NNW,338,1.2,1.2,67,0.00,CLR,,0.00,WeatherDisplay:10.37,2013-07-25 03:22:00,
2013-07-24 23:23:00,65.1,53.9,30.00,NNW,338,1.2,1.2,67,0.00,CLR,,0.00,WeatherDisplay:10.37,2013-07-25 03:23:00,
2013-07-24 23:24:00,64.9,53.7,30.00,NE,45,2.3,2.3,67,0.00,CLR,,0.00,WeatherDisplay:10.37,2013-07-25 03:24:00,
2013-07-24 23:27:00,64.9,53.7,30.00,NW,315,2.3,2.3,67,0.00,CLR,,0.00,WeatherDisplay:10.37,2013-07-25 03:27:00,
2013-07-24 23:28:00,64.9,53.7,30.00,NE,45,1.2,1.2,67,0.00,CLR,,0.00,WeatherDisplay:10.37,2013-07-25 03:28:00,
2013-07-24 23:29:00,64.9,53.7,30.00,NE,45,1.2,1.2,67,0.00,CLR,,0.00,WeatherDisplay:10.37,2013-07-25 03:29:00,
2013-07-24 23:32:00,64.8,53.9,30.00,ENE,68,3.5,3.8,68,0.00,CLR,,0.00,WeatherDisplay:10.37,2013-07-25 03:32:00,
2013-07-24 23:33:00,64.8,53.9,30.00,SSW,202,3.5,3.5,68,0.00,CLR,,0.00,WeatherDisplay:10.37,2013-07-25 03:33:00,
2013-07-24 23:36:00,64.8,53.9,30.00,WNW,292,1.2,1.2,68,0.00,CLR,,0.00,WeatherDisplay:10.37,2013-07-25 03:36:00,
2013-07-24 23:37:00,64.8,53.9,30.00,NW,315,1.2,0.0,68,0.00,CLR,,0.00,WeatherDisplay:10.37,2013-07-25 03:37:00,
2013-07-24 23:39:00,64.6,53.8,30.00,WSW,248,1.2,1.2,68,0.00,CLR,,0.00,WeatherDisplay:10.37,2013-07-25 03:39:00,
2013-07-24 23:42:00,64.6,53.8,30.00,SE,135,0.2,0.2,68,0.00,CLR,,0.00,WeatherDisplay:10.37,2013-07-25 03:42:00,
2013-07-24 23:44:00,64.6,53.8,30.00,SE,135,0.0,0.2,68,0.00,CLR,,0.00,WeatherDisplay:10.37,2013-07-25 03:44:00,
2013-07-24 23:48:00,64.4,53.6,30.00,East,90,0.0,0.5,68,0.00,CLR,,0.00,WeatherDisplay:10.37,2013-07-25 03:48:00,
2013-07-24 23:49:00,64.4,53.6,30.00,NNW,338,1.2,1.2,68,0.00,CLR,,0.00,WeatherDisplay:10.37,2013-07-25 03:49:00,
2013-07-24 23:53:00,64.4,53.6,30.00,WNW,292,1.2,1.2,68,0.00,CLR,,0.00,WeatherDisplay:10.37,2013-07-25 03:53:00,
2013-07-24 23:55:00,64.4,53.6,30.00,WNW,282,1.0,1.0,68,0.00,CLR,CLR,0.00,WeatherDisplay:10.37,2013-07-25 03:55:00,
2013-07-24 23:56:00,64.4,53.6,30.00,WNW,292,1.2,1.2,68,0.00,CLR,,0.00,WeatherDisplay:10.37,2013-07-25 03:56:00,